Observation data for Segovia 7SSW on 08/11/2019      Previous  Date  Next       Current Mesonet Observations  Soil Data  Daily Summary Page  Observations in Plain Language
KSE2 110500Z 13010KT 29/18 A3002 RMK A01 T02860180  RH  053%=      5-min Rain = 0
KSE2 110501Z 13009KT 29/18 A3002 RMK A01 T02860180  RH  053%=      5-min Rain = 0
KSE2 110502Z 14007KT 29/18 A3002 RMK A01 T02860180  RH  053%=      5-min Rain = 0
KSE2 110503Z 13009KT 29/18 A3002 RMK A01 T02850180  RH  053%=      5-min Rain = 0
KSE2 110504Z 13010KT 29/18 A3002 RMK A01 T02850180  RH  053%=      5-min Rain = 0
KSE2 110505Z 13008KT 29/18 A3002 RMK A01 T02850180  RH  053%=      5-min Rain = 0
KSE2 110506Z 14009KT 29/18 A3002 RMK A01 T02850180  RH  053%=      5-min Rain = 0
KSE2 110507Z 13009KT 29/18 A3002 RMK A01 T02850181  RH  053%=      5-min Rain = 0
KSE2 110508Z 14009KT 29/18 A3002 RMK A01 T02850181  RH  053%=      5-min Rain = 0
KSE2 110509Z 13008KT 29/18 A3002 RMK A01 T02850181  RH  053%=      5-min Rain = 0
KSE2 110510Z 14009KT 28/18 A3002 RMK A01 T02840181  RH  054%=      5-min Rain = 0
KSE2 110511Z 14008KT 28/18 A3002 RMK A01 T02840182  RH  054%=      5-min Rain = 0
KSE2 110512Z 14008KT 28/18 A3003 RMK A01 T02830182  RH  054%=      5-min Rain = 0
KSE2 110513Z 14008KT 28/18 A3003 RMK A01 T02830182  RH  054%=      5-min Rain = 0
KSE2 110514Z 14008KT 28/18 A3003 RMK A01 T02830182  RH  054%=      5-min Rain = 0
KSE2 110515Z 14009KT 28/18 A3003 RMK A01 T02830182  RH  054%=      5-min Rain = 0
KSE2 110516Z 14009KT 28/18 A3003 RMK A01 T02830183  RH  054%=      5-min Rain = 0
KSE2 110517Z 15008KT 28/18 A3003 RMK A01 T02830183  RH  055%=      5-min Rain = 0
KSE2 110518Z 14008KT 28/18 A3003 RMK A01 T02830183  RH  055%=      5-min Rain = 0
KSE2 110519Z 14006KT 28/18 A3003 RMK A01 T02830183  RH  055%=      5-min Rain = 0
KSE2 110520Z 14010KT 28/18 A3003 RMK A01 T02820184  RH  055%=      5-min Rain = 0
KSE2 110521Z 14009KT 28/18 A3003 RMK A01 T02820184  RH  055%=      5-min Rain = 0
KSE2 110522Z 14008KT 28/18 A3003 RMK A01 T02820184  RH  055%=      5-min Rain = 0
KSE2 110523Z 14007KT 28/18 A3003 RMK A01 T02820184  RH  055%=      5-min Rain = 0
KSE2 110524Z 14008KT 28/18 A3003 RMK A01 T02820184  RH  055%=      5-min Rain = 0
KSE2 110525Z 14008KT 28/18 A3003 RMK A01 T02810184  RH  056%=      5-min Rain = 0
KSE2 110526Z 14007KT 28/18 A3003 RMK A01 T02810184  RH  056%=      5-min Rain = 0
KSE2 110527Z 14008KT 28/18 A3003 RMK A01 T02800184  RH  056%=      5-min Rain = 0
KSE2 110528Z 14011KT 28/19 A3003 RMK A01 T02810185  RH  056%=      5-min Rain = 0
KSE2 110529Z 14009KT 28/19 A3003 RMK A01 T02810186  RH  056%=      5-min Rain = 0
KSE2 110530Z 14010KT 28/19 A3003 RMK A01 T02810185  RH  056%=      5-min Rain = 0
KSE2 110531Z 14010KT 28/19 A3003 RMK A01 T02810186  RH  056%=      5-min Rain = 0
KSE2 110532Z 14008KT 28/19 A3003 RMK A01 T02810186  RH  056%=      5-min Rain = 0
KSE2 110533Z 14007KT 28/19 A3002 RMK A01 T02800186  RH  056%=      5-min Rain = 0
KSE2 110534Z 14008KT 28/19 A3002 RMK A01 T02800186  RH  057%=      5-min Rain = 0
KSE2 110535Z 14008KT 28/19 A3002 RMK A01 T02790186  RH  057%=      5-min Rain = 0
KSE2 110536Z 14010KT 28/19 A3002 RMK A01 T02790187  RH  057%=      5-min Rain = 0
KSE2 110537Z 15010KT 28/19 A3002 RMK A01 T02790187  RH  057%=      5-min Rain = 0
KSE2 110538Z 14009KT 28/19 A3002 RMK A01 T02790188  RH  057%=      5-min Rain = 0
KSE2 110539Z 15008KT 28/19 A3002 RMK A01 T02790188  RH  057%=      5-min Rain = 0
KSE2 110540Z 14008KT 28/19 A3003 RMK A01 T02790188  RH  058%=      5-min Rain = 0
KSE2 110541Z 15008KT 28/19 A3003 RMK A01 T02790188  RH  058%=      5-min Rain = 0
KSE2 110542Z 14009KT 28/19 A3003 RMK A01 T02780188  RH  058%=      5-min Rain = 0
KSE2 110543Z 14009KT 28/19 A3003 RMK A01 T02780188  RH  058%=      5-min Rain = 0
KSE2 110544Z 15009KT 28/19 A3003 RMK A01 T02780188  RH  058%=      5-min Rain = 0
KSE2 110545Z 15008KT 28/19 A3003 RMK A01 T02780189  RH  058%=      5-min Rain = 0
KSE2 110546Z 15009KT 28/19 A3003 RMK A01 T02780189  RH  059%=      5-min Rain = 0
KSE2 110547Z 15011KT 28/19 A3003 RMK A01 T02780190  RH  059%=      5-min Rain = 0
KSE2 110548Z 15011KT 28/19 A3003 RMK A01 T02780191  RH  059%=      5-min Rain = 0
KSE2 110549Z 15011KT 28/19 A3003 RMK A01 T02790193  RH  060%=      5-min Rain = 0
KSE2 110550Z 14011KT 28/19 A3003 RMK A01 T02790193  RH  060%=      5-min Rain = 0
KSE2 110551Z 14014KT 28/19 A3003 RMK A01 T02790194  RH  060%=      5-min Rain = 0
KSE2 110552Z 15011KT 28/20 A3003 RMK A01 T02800195  RH  060%=      5-min Rain = 0
KSE2 110553Z 15010KT 28/20 A3003 RMK A01 T02800195  RH  060%=      5-min Rain = 0
KSE2 110554Z 15010G16KT 28/20 A3003 RMK A01 T02800195  RH  060%=      5-min Rain = 0
KSE2 110555Z 14013KT 28/20 A3003 RMK A01 T02800197  RH  061%=      5-min Rain = 0
KSE2 110556Z 15013KT 28/20 A3003 RMK A01 T02800197  RH  061%=      5-min Rain = 0
KSE2 110557Z 15013KT 28/20 A3003 RMK A01 T02800197  RH  061%=      5-min Rain = 0
KSE2 110558Z 15010G16KT 28/20 A3003 RMK A01 T02800198  RH  061%=      5-min Rain = 0
KSE2 110559Z 15008KT 28/20 A3003 RMK A01 T02800198  RH  061%=      5-min Rain = 0
KSE2 110600Z 14011KT 28/20 A3003 RMK A01 T02790198  RH  061%=      5-min Rain = 0
KSE2 110601Z 15011KT 28/20 A3003 RMK A01 T02790199  RH  061%=      5-min Rain = 0
KSE2 110602Z 14010KT 28/20 A3003 RMK A01 T02790199  RH  062%=      5-min Rain = 0
KSE2 110603Z 15008KT 28/20 A3003 RMK A01 T02790199  RH  062%=      5-min Rain = 0
KSE2 110604Z 14008KT 28/20 A3003 RMK A01 T02780199  RH  062%=      5-min Rain = 0
KSE2 110605Z 15008G13KT 28/20 A3003 RMK A01 T02780199  RH  062%=      5-min Rain = 0
KSE2 110606Z 13009KT 28/20 A3003 RMK A01 T02780199  RH  062%=      5-min Rain = 0
KSE2 110607Z 14010KT 28/20 A3003 RMK A01 T02770199  RH  062%=      5-min Rain = 0
KSE2 110608Z 14010KT 28/20 A3003 RMK A01 T02770199  RH  062%=      5-min Rain = 0
KSE2 110609Z 14012KT 28/20 A3003 RMK A01 T02780200  RH  063%=      5-min Rain = 0
KSE2 110610Z 13009KT 28/20 A3003 RMK A01 T02780200  RH  063%=      5-min Rain = 0
KSE2 110611Z 14008KT 28/20 A3003 RMK A01 T02780200  RH  063%=      5-min Rain = 0
KSE2 110612Z 13010KT 28/20 A3003 RMK A01 T02770200  RH  063%=      5-min Rain = 0
KSE2 110613Z 13009KT 28/20 A3003 RMK A01 T02770200  RH  063%=      5-min Rain = 0
KSE2 110614Z 14009KT 28/20 A3003 RMK A01 T02760200  RH  063%=      5-min Rain = 0
KSE2 110615Z 13012KT 28/20 A3003 RMK A01 T02760201  RH  063%=      5-min Rain = 0
KSE2 110616Z 14012KT 28/20 A3003 RMK A01 T02760201  RH  064%=      5-min Rain = 0
KSE2 110617Z 14012KT 28/20 A3003 RMK A01 T02760201  RH  064%=      5-min Rain = 0
KSE2 110618Z 14011KT 28/20 A3003 RMK A01 T02760201  RH  064%=      5-min Rain = 0
KSE2 110619Z 15010KT 28/20 A3003 RMK A01 T02760201  RH  064%=      5-min Rain = 0
KSE2 110620Z 15013KT 28/20 A3003 RMK A01 T02760202  RH  064%=      5-min Rain = 0
KSE2 110621Z 15009KT 28/20 A3003 RMK A01 T02760202  RH  064%=      5-min Rain = 0
KSE2 110622Z 14009KT 28/20 A3003 RMK A01 T02760202  RH  064%=      5-min Rain = 0
KSE2 110623Z 14010G15KT 28/20 A3003 RMK A01 T02760202  RH  064%=      5-min Rain = 0
KSE2 110624Z 14011KT 28/20 A3003 RMK A01 T02760202  RH  064%=      5-min Rain = 0
KSE2 110625Z 14009KT 28/20 A3003 RMK A01 T02750202  RH  064%=      5-min Rain = 0
KSE2 110626Z 14011KT 28/20 A3003 RMK A01 T02750203  RH  065%=      5-min Rain = 0
KSE2 110627Z 15012KT 28/20 A3003 RMK A01 T02750203  RH  065%=      5-min Rain = 0
KSE2 110628Z 15014KT 28/20 A3003 RMK A01 T02750203  RH  065%=      5-min Rain = 0
KSE2 110629Z 14013KT 28/20 A3003 RMK A01 T02750203  RH  065%=      5-min Rain = 0
KSE2 110630Z 14013KT 28/20 A3003 RMK A01 T02750203  RH  065%=      5-min Rain = 0
KSE2 110631Z 14010KT 28/20 A3003 RMK A01 T02750203  RH  065%=      5-min Rain = 0
KSE2 110632Z 14014KT 28/20 A3003 RMK A01 T02750203  RH  065%=      5-min Rain = 0
KSE2 110633Z 14012KT 28/20 A3003 RMK A01 T02750203  RH  065%=      5-min Rain = 0
KSE2 110634Z 14011KT 28/20 A3003 RMK A01 T02750203  RH  065%=      5-min Rain = 0
KSE2 110635Z 14012G17KT 28/20 A3003 RMK A01 T02750203  RH  065%=      5-min Rain = 0
KSE2 110636Z 14012G17KT 27/20 A3003 RMK A01 T02740203  RH  065%=      5-min Rain = 0
KSE2 110637Z 14010KT 27/20 A3003 RMK A01 T02740203  RH  065%=      5-min Rain = 0
KSE2 110638Z 14008KT 27/20 A3003 RMK A01 T02740203  RH  065%=      5-min Rain = 0
KSE2 110639Z 15009KT 27/20 A3003 RMK A01 T02730203  RH  065%=      5-min Rain = 0
KSE2 110640Z 14013KT 27/20 A3003 RMK A01 T02730203  RH  066%=      5-min Rain = 0
KSE2 110641Z 14010KT 27/20 A3003 RMK A01 T02730203  RH  066%=      5-min Rain = 0
KSE2 110642Z 14013KT 27/20 A3003 RMK A01 T02730203  RH  066%=      5-min Rain = 0
KSE2 110643Z 14012G18KT 27/20 A3003 RMK A01 T02730203  RH  065%=      5-min Rain = 0
KSE2 110644Z 15009KT 27/20 A3003 RMK A01 T02730203  RH  065%=      5-min Rain = 0
KSE2 110645Z 15007KT 27/20 A3003 RMK A01 T02720202  RH  066%=      5-min Rain = 0
KSE2 110646Z 16012KT 27/20 A3003 RMK A01 T02720202  RH  066%=      5-min Rain = 0
KSE2 110647Z 15014KT 27/20 A3003 RMK A01 T02710202  RH  066%=      5-min Rain = 0
KSE2 110648Z 14015KT 27/20 A3003 RMK A01 T02720202  RH  066%=      5-min Rain = 0
KSE2 110649Z 15011KT 27/20 A3003 RMK A01 T02720202  RH  065%=      5-min Rain = 0
KSE2 110650Z 15014KT 27/20 A3003 RMK A01 T02720202  RH  065%=      5-min Rain = 0
KSE2 110651Z 15012G18KT 27/20 A3003 RMK A01 T02720201  RH  065%=      5-min Rain = 0
KSE2 110652Z 14014G19KT 27/20 A3003 RMK A01 T02720201  RH  065%=      5-min Rain = 0
KSE2 110653Z 14012KT 27/20 A3003 RMK A01 T02720201  RH  065%=      5-min Rain = 0
KSE2 110654Z 14010KT 27/20 A3003 RMK A01 T02720201  RH  065%=      5-min Rain = 0
KSE2 110655Z 15010KT 27/20 A3003 RMK A01 T02710200  RH  065%=      5-min Rain = 0
KSE2 110656Z 15012KT 27/20 A3003 RMK A01 T02710200  RH  065%=      5-min Rain = 0
KSE2 110657Z 14013G18KT 27/20 A3003 RMK A01 T02710201  RH  065%=      5-min Rain = 0
KSE2 110658Z 15017KT 27/20 A3003 RMK A01 T02700199  RH  065%=      5-min Rain = 0
KSE2 110659Z 15016G21KT 27/20 A3003 RMK A01 T02710199  RH  065%=      5-min Rain = 0
KSE2 110700Z 15014G20KT 27/20 A3003 RMK A01 T02710199  RH  065%=      5-min Rain = 0
KSE2 110701Z 16010KT 27/20 A3003 RMK A01 T02710199  RH  065%=      5-min Rain = 0
KSE2 110702Z 14010KT 27/20 A3003 RMK A01 T02700199  RH  065%=      5-min Rain = 0
KSE2 110703Z 15010KT 27/20 A3003 RMK A01 T02700198  RH  065%=      5-min Rain = 0
KSE2 110704Z 14009KT 27/20 A3003 RMK A01 T02690198  RH  065%=      5-min Rain = 0
KSE2 110705Z 15015G20KT 27/20 A3003 RMK A01 T02690198  RH  065%=      5-min Rain = 0
KSE2 110706Z 15011G16KT 27/20 A3003 RMK A01 T02690198  RH  065%=      5-min Rain = 0
KSE2 110707Z 15009KT 27/20 A3003 RMK A01 T02690198  RH  065%=      5-min Rain = 0
KSE2 110708Z 15012KT 27/20 A3003 RMK A01 T02690198  RH  065%=      5-min Rain = 0
KSE2 110709Z 15011KT 27/20 A3003 RMK A01 T02680198  RH  065%=      5-min Rain = 0
KSE2 110710Z 15011KT 27/20 A3003 RMK A01 T02680198  RH  065%=      5-min Rain = 0
KSE2 110711Z 14010KT 27/20 A3003 RMK A01 T02680197  RH  065%=      5-min Rain = 0
KSE2 110712Z 15009KT 27/20 A3003 RMK A01 T02680197  RH  065%=      5-min Rain = 0
KSE2 110713Z 15011KT 27/20 A3003 RMK A01 T02680197  RH  065%=      5-min Rain = 0
KSE2 110714Z 15008KT 27/20 A3003 RMK A01 T02670197  RH  065%=      5-min Rain = 0
KSE2 110715Z 14008KT 27/20 A3003 RMK A01 T02670196  RH  065%=      5-min Rain = 0
KSE2 110716Z 15008KT 27/20 A3003 RMK A01 T02660196  RH  065%=      5-min Rain = 0
KSE2 110717Z 15009KT 27/20 A3003 RMK A01 T02660196  RH  065%=      5-min Rain = 0
KSE2 110718Z 15011KT 27/20 A3003 RMK A01 T02660196  RH  065%=      5-min Rain = 0
KSE2 110719Z 15009KT 27/20 A3003 RMK A01 T02660196  RH  065%=      5-min Rain = 0
KSE2 110720Z 15009KT 27/20 A3003 RMK A01 T02660196  RH  065%=      5-min Rain = 0
KSE2 110721Z 14009KT 27/20 A3003 RMK A01 T02660196  RH  065%=      5-min Rain = 0
KSE2 110722Z 15007KT 27/20 A3003 RMK A01 T02650195  RH  065%=      5-min Rain = 0
KSE2 110723Z 15008KT 27/20 A3003 RMK A01 T02650195  RH  065%=      5-min Rain = 0
KSE2 110724Z 14009KT 26/20 A3003 RMK A01 T02640195  RH  066%=      5-min Rain = 0
KSE2 110725Z 15010KT 26/20 A3003 RMK A01 T02640195  RH  066%=      5-min Rain = 0
KSE2 110726Z 15008KT 26/20 A3003 RMK A01 T02640195  RH  066%=      5-min Rain = 0
KSE2 110727Z 15010KT 26/20 A3003 RMK A01 T02640195  RH  066%=      5-min Rain = 0
KSE2 110728Z 15010KT 26/20 A3002 RMK A01 T02640195  RH  066%=      5-min Rain = 0
KSE2 110729Z 14009KT 26/20 A3002 RMK A01 T02640195  RH  066%=      5-min Rain = 0
KSE2 110730Z 14011G16KT 26/19 A3002 RMK A01 T02640194  RH  066%=      5-min Rain = 0
KSE2 110731Z 14009G14KT 26/20 A3002 RMK A01 T02640195  RH  066%=      5-min Rain = 0
KSE2 110732Z 15012KT 26/19 A3002 RMK A01 T02640194  RH  066%=      5-min Rain = 0
KSE2 110733Z 14010KT 26/20 A3002 RMK A01 T02640195  RH  066%=      5-min Rain = 0
KSE2 110734Z 15010KT 26/19 A3002 RMK A01 T02640194  RH  066%=      5-min Rain = 0
KSE2 110735Z 15010KT 26/19 A3002 RMK A01 T02640194  RH  066%=      5-min Rain = 0
KSE2 110736Z 15008KT 26/19 A3002 RMK A01 T02630194  RH  066%=      5-min Rain = 0
KSE2 110737Z 15009KT 26/19 A3002 RMK A01 T02630194  RH  066%=      5-min Rain = 0
KSE2 110738Z 14011KT 26/19 A3002 RMK A01 T02620194  RH  066%=      5-min Rain = 0
KSE2 110739Z 15011KT 26/19 A3002 RMK A01 T02620194  RH  066%=      5-min Rain = 0
KSE2 110740Z 15009KT 26/19 A3002 RMK A01 T02620194  RH  066%=      5-min Rain = 0
KSE2 110741Z 15008KT 26/19 A3002 RMK A01 T02620194  RH  066%=      5-min Rain = 0
KSE2 110742Z 15009KT 26/19 A3002 RMK A01 T02620194  RH  066%=      5-min Rain = 0
KSE2 110743Z 15010KT 26/19 A3002 RMK A01 T02620194  RH  066%=      5-min Rain = 0
KSE2 110744Z 15009KT 26/19 A3003 RMK A01 T02620194  RH  066%=      5-min Rain = 0
KSE2 110745Z 15008KT 26/19 A3003 RMK A01 T02610194  RH  066%=      5-min Rain = 0
KSE2 110746Z 15007KT 26/19 A3003 RMK A01 T02610194  RH  066%=      5-min Rain = 0
KSE2 110747Z 15007KT 26/19 A3003 RMK A01 T02610194  RH  067%=      5-min Rain = 0
KSE2 110748Z 15010KT 26/19 A3003 RMK A01 T02600194  RH  067%=      5-min Rain = 0
KSE2 110749Z 15010KT 26/19 A3003 RMK A01 T02600194  RH  067%=      5-min Rain = 0
KSE2 110750Z 15011KT 26/19 A3003 RMK A01 T02600194  RH  067%=      5-min Rain = 0
KSE2 110751Z 15010KT 26/19 A3003 RMK A01 T02600194  RH  067%=      5-min Rain = 0
KSE2 110752Z 15011G17KT 26/19 A3003 RMK A01 T02600194  RH  067%=      5-min Rain = 0
KSE2 110753Z 14011KT 26/19 A3002 RMK A01 T02600194  RH  067%=      5-min Rain = 0
KSE2 110754Z 14010G15KT 26/19 A3002 RMK A01 T02590194  RH  067%=      5-min Rain = 0
KSE2 110755Z 15010KT 26/19 A3002 RMK A01 T02600194  RH  067%=      5-min Rain = 0
KSE2 110756Z 15010KT 26/19 A3002 RMK A01 T02590194  RH  067%=      5-min Rain = 0
KSE2 110757Z 15009KT 26/19 A3002 RMK A01 T02590194  RH  067%=      5-min Rain = 0
KSE2 110758Z 15009KT 26/19 A3002 RMK A01 T02590194  RH  067%=      5-min Rain = 0
KSE2 110759Z 15010KT 26/19 A3002 RMK A01 T02590194  RH  067%=      5-min Rain = 0
KSE2 110800Z 15011KT 26/19 A3002 RMK A01 T02580194  RH  067%=      5-min Rain = 0
KSE2 110801Z 16012KT 26/19 A3002 RMK A01 T02590194  RH  068%=      5-min Rain = 0
KSE2 110802Z 15011G18KT 26/19 A3002 RMK A01 T02580194  RH  068%=      5-min Rain = 0
KSE2 110803Z 15010KT 26/19 A3002 RMK A01 T02580194  RH  068%=      5-min Rain = 0
KSE2 110804Z 16009G14KT 26/19 A3002 RMK A01 T02580194  RH  068%=      5-min Rain = 0
KSE2 110805Z 15013KT 26/19 A3002 RMK A01 T02580194  RH  068%=      5-min Rain = 0
KSE2 110806Z 16008G13KT 26/19 A3002 RMK A01 T02580194  RH  068%=      5-min Rain = 0
KSE2 110807Z 15011KT 26/19 A3002 RMK A01 T02570194  RH  068%=      5-min Rain = 0
KSE2 110808Z 16010KT 26/20 A3002 RMK A01 T02580195  RH  068%=      5-min Rain = 0
KSE2 110809Z 16008KT 26/19 A3003 RMK A01 T02570194  RH  068%=      5-min Rain = 0
KSE2 110810Z 15010KT 26/19 A3003 RMK A01 T02570194  RH  068%=      5-min Rain = 0
KSE2 110811Z 16008KT 26/19 A3003 RMK A01 T02560194  RH  069%=      5-min Rain = 0
KSE2 110812Z 15008G13KT 26/19 A3003 RMK A01 T02560194  RH  069%=      5-min Rain = 0
KSE2 110813Z 16010KT 26/19 A3002 RMK A01 T02560194  RH  069%=      5-min Rain = 0
KSE2 110814Z 15013G19KT 26/20 A3002 RMK A01 T02560195  RH  069%=      5-min Rain = 0
KSE2 110815Z 15012G17KT 26/20 A3002 RMK A01 T02550195  RH  069%=      5-min Rain = 0
KSE2 110816Z 16009KT 26/20 A3002 RMK A01 T02560195  RH  069%=      5-min Rain = 0
KSE2 110817Z 16011KT 26/20 A3002 RMK A01 T02560195  RH  069%=      5-min Rain = 0
KSE2 110818Z 16008KT 26/20 A3002 RMK A01 T02550195  RH  069%=      5-min Rain = 0
KSE2 110819Z 16008G13KT 26/20 A3002 RMK A01 T02550195  RH  069%=      5-min Rain = 0
KSE2 110820Z 16008KT 25/19 A3002 RMK A01 T02540194  RH  070%=      5-min Rain = 0
KSE2 110821Z 16008KT 25/20 A3002 RMK A01 T02540195  RH  070%=      5-min Rain = 0
KSE2 110822Z 16010KT 25/20 A3002 RMK A01 T02540195  RH  070%=      5-min Rain = 0
KSE2 110823Z 15008KT 25/20 A3002 RMK A01 T02540195  RH  070%=      5-min Rain = 0
KSE2 110824Z 16008KT 25/20 A3002 RMK A01 T02530195  RH  070%=      5-min Rain = 0
KSE2 110825Z 17007KT 25/20 A3002 RMK A01 T02530195  RH  070%=      5-min Rain = 0
KSE2 110826Z 16008KT 25/20 A3002 RMK A01 T02520195  RH  070%=      5-min Rain = 0
KSE2 110827Z 15007KT 25/20 A3002 RMK A01 T02520195  RH  070%=      5-min Rain = 0
KSE2 110828Z 15006KT 25/20 A3002 RMK A01 T02520195  RH  071%=      5-min Rain = 0
KSE2 110829Z 16009G14KT 25/20 A3002 RMK A01 T02520195  RH  071%=      5-min Rain = 0
KSE2 110830Z 15008KT 25/20 A3002 RMK A01 T02520195  RH  071%=      5-min Rain = 0
KSE2 110831Z 16009KT 25/20 A3002 RMK A01 T02510195  RH  071%=      5-min Rain = 0
KSE2 110832Z 16009KT 25/20 A3002 RMK A01 T02520195  RH  071%=      5-min Rain = 0
KSE2 110833Z 16010KT 25/20 A3002 RMK A01 T02510195  RH  071%=      5-min Rain = 0
KSE2 110834Z 15009KT 25/20 A3002 RMK A01 T02510195  RH  071%=      5-min Rain = 0
KSE2 110835Z 16007KT 25/20 A3002 RMK A01 T02510195  RH  071%=      5-min Rain = 0
KSE2 110836Z 16009KT 25/20 A3002 RMK A01 T02510196  RH  071%=      5-min Rain = 0
KSE2 110837Z 16009KT 25/20 A3002 RMK A01 T02510195  RH  071%=      5-min Rain = 0
KSE2 110838Z 16007KT 25/20 A3002 RMK A01 T02500195  RH  071%=      5-min Rain = 0
KSE2 110839Z 16008KT 25/20 A3002 RMK A01 T02500195  RH  071%=      5-min Rain = 0
KSE2 110840Z 16008KT 25/20 A3002 RMK A01 T02500195  RH  072%=      5-min Rain = 0
KSE2 110841Z 16010KT 25/20 A3002 RMK A01 T02500195  RH  072%=      5-min Rain = 0
KSE2 110842Z 15009KT 25/20 A3002 RMK A01 T02500195  RH  072%=      5-min Rain = 0
KSE2 110843Z 15010KT 25/20 A3002 RMK A01 T02500195  RH  072%=      5-min Rain = 0
KSE2 110844Z 16009KT 25/20 A3002 RMK A01 T02500195  RH  072%=      5-min Rain = 0
KSE2 110845Z 16010KT 25/20 A3002 RMK A01 T02490195  RH  072%=      5-min Rain = 0
KSE2 110846Z 16007KT 25/20 A3002 RMK A01 T02500195  RH  072%=      5-min Rain = 0
KSE2 110847Z 16007KT 25/20 A3002 RMK A01 T02490195  RH  072%=      5-min Rain = 0
KSE2 110848Z 15007KT 25/20 A3002 RMK A01 T02490195  RH  072%=      5-min Rain = 0
KSE2 110849Z 16008KT 25/19 A3002 RMK A01 T02480194  RH  072%=      5-min Rain = 0
KSE2 110850Z 16007KT 25/19 A3002 RMK A01 T02480194  RH  072%=      5-min Rain = 0
KSE2 110851Z 16007KT 25/20 A3002 RMK A01 T02480195  RH  072%=      5-min Rain = 0
KSE2 110852Z 16007KT 25/20 A3002 RMK A01 T02480195  RH  072%=      5-min Rain = 0
KSE2 110853Z 16007KT 25/19 A3002 RMK A01 T02470194  RH  072%=      5-min Rain = 0
KSE2 110854Z 17006KT 25/19 A3002 RMK A01 T02470194  RH  072%=      5-min Rain = 0
KSE2 110855Z 16007KT 25/19 A3002 RMK A01 T02470194  RH  073%=      5-min Rain = 0
KSE2 110856Z 16006KT 25/19 A3002 RMK A01 T02460194  RH  073%=      5-min Rain = 0
KSE2 110857Z 16008KT 25/19 A3002 RMK A01 T02460194  RH  073%=      5-min Rain = 0
KSE2 110858Z 15007KT 25/19 A3002 RMK A01 T02460194  RH  073%=      5-min Rain = 0
KSE2 110859Z 15006KT 25/19 A3002 RMK A01 T02460194  RH  073%=      5-min Rain = 0
KSE2 110900Z 16006KT 25/19 A3003 RMK A01 T02450194  RH  073%=      5-min Rain = 0
KSE2 110901Z 15007KT 25/19 A3003 RMK A01 T02450194  RH  073%=      5-min Rain = 0
KSE2 110902Z 15006KT 25/19 A3003 RMK A01 T02450194  RH  073%=      5-min Rain = 0
KSE2 110903Z 15006KT 25/19 A3003 RMK A01 T02450194  RH  073%=      5-min Rain = 0
KSE2 110904Z 15007KT 24/19 A3003 RMK A01 T02440194  RH  073%=      5-min Rain = 0
KSE2 110905Z 15006KT 24/19 A3003 RMK A01 T02440194  RH  073%=      5-min Rain = 0
KSE2 110906Z 15006KT 24/19 A3003 RMK A01 T02440194  RH  074%=      5-min Rain = 0
KSE2 110907Z 15006KT 24/19 A3003 RMK A01 T02440194  RH  074%=      5-min Rain = 0
KSE2 110908Z 15007KT 24/19 A3003 RMK A01 T02430194  RH  074%=      5-min Rain = 0
KSE2 110909Z 15006KT 24/19 A3003 RMK A01 T02430194  RH  074%=      5-min Rain = 0
KSE2 110910Z 15008KT 24/19 A3003 RMK A01 T02430194  RH  074%=      5-min Rain = 0
KSE2 110911Z 15006KT 24/19 A3003 RMK A01 T02430193  RH  074%=      5-min Rain = 0
KSE2 110912Z 15006KT 24/19 A3003 RMK A01 T02430193  RH  074%=      5-min Rain = 0
KSE2 110913Z 15006KT 24/19 A3003 RMK A01 T02420193  RH  074%=      5-min Rain = 0
KSE2 110914Z 15006KT 24/19 A3003 RMK A01 T02410193  RH  074%=      5-min Rain = 0
KSE2 110915Z 15005KT 24/19 A3003 RMK A01 T02410193  RH  074%=      5-min Rain = 0
KSE2 110916Z 15005KT 24/19 A3003 RMK A01 T02400193  RH  075%=      5-min Rain = 0
KSE2 110917Z 14006KT 24/19 A3003 RMK A01 T02400193  RH  075%=      5-min Rain = 0
KSE2 110918Z 15007KT 24/19 A3003 RMK A01 T02390193  RH  075%=      5-min Rain = 0
KSE2 110919Z 15007KT 24/19 A3003 RMK A01 T02390193  RH  075%=      5-min Rain = 0
KSE2 110920Z 15007KT 24/19 A3003 RMK A01 T02390193  RH  075%=      5-min Rain = 0
KSE2 110921Z 15006KT 24/19 A3003 RMK A01 T02390193  RH  075%=      5-min Rain = 0
KSE2 110922Z 15008KT 24/19 A3003 RMK A01 T02390193  RH  075%=      5-min Rain = 0
KSE2 110923Z 15007KT 24/19 A3003 RMK A01 T02390193  RH  075%=      5-min Rain = 0
KSE2 110924Z 15007KT 24/19 A3003 RMK A01 T02390193  RH  075%=      5-min Rain = 0
KSE2 110925Z 15007KT 24/19 A3003 RMK A01 T02390193  RH  075%=      5-min Rain = 0
KSE2 110926Z 15006KT 24/19 A3003 RMK A01 T02380193  RH  075%=      5-min Rain = 0
KSE2 110927Z 15008KT 24/19 A3003 RMK A01 T02380193  RH  076%=      5-min Rain = 0
KSE2 110928Z 15007KT 24/19 A3003 RMK A01 T02380193  RH  076%=      5-min Rain = 0
KSE2 110929Z 15007KT 24/19 A3003 RMK A01 T02380193  RH  076%=      5-min Rain = 0
KSE2 110930Z 15007KT 24/19 A3003 RMK A01 T02380193  RH  076%=      5-min Rain = 0
KSE2 110931Z 15006KT 24/19 A3003 RMK A01 T02380193  RH  076%=      5-min Rain = 0
KSE2 110932Z 15006KT 24/19 A3003 RMK A01 T02380193  RH  076%=      5-min Rain = 0
KSE2 110933Z 16005KT 24/19 A3003 RMK A01 T02380192  RH  076%=      5-min Rain = 0
KSE2 110934Z 16006KT 24/19 A3003 RMK A01 T02370192  RH  076%=      5-min Rain = 0
KSE2 110935Z 15006KT 24/19 A3003 RMK A01 T02370192  RH  076%=      5-min Rain = 0
KSE2 110936Z 15008KT 24/19 A3003 RMK A01 T02370192  RH  076%=      5-min Rain = 0
KSE2 110937Z 15007KT 24/19 A3003 RMK A01 T02370192  RH  076%=      5-min Rain = 0
KSE2 110938Z 15007KT 24/19 A3003 RMK A01 T02370192  RH  076%=      5-min Rain = 0
KSE2 110939Z 15008KT 24/19 A3003 RMK A01 T02370192  RH  076%=      5-min Rain = 0
KSE2 110940Z 15007KT 24/19 A3003 RMK A01 T02370192  RH  076%=      5-min Rain = 0
KSE2 110941Z 15007KT 24/19 A3003 RMK A01 T02370192  RH  076%=      5-min Rain = 0
KSE2 110942Z 14007KT 24/19 A3003 RMK A01 T02370191  RH  076%=      5-min Rain = 0
KSE2 110943Z 14007KT 24/19 A3003 RMK A01 T02370192  RH  076%=      5-min Rain = 0
KSE2 110944Z 14007KT 24/19 A3003 RMK A01 T02370192  RH  076%=      5-min Rain = 0
KSE2 110945Z 15007KT 24/19 A3003 RMK A01 T02360191  RH  076%=      5-min Rain = 0
KSE2 110946Z 15008KT 24/19 A3003 RMK A01 T02360191  RH  076%=      5-min Rain = 0
KSE2 110947Z 14007KT 24/19 A3003 RMK A01 T02360191  RH  076%=      5-min Rain = 0
KSE2 110948Z 15007KT 24/19 A3003 RMK A01 T02360191  RH  076%=      5-min Rain = 0
KSE2 110949Z 14007KT 24/19 A3003 RMK A01 T02360191  RH  076%=      5-min Rain = 0
KSE2 110950Z 14006KT 24/19 A3003 RMK A01 T02350191  RH  076%=      5-min Rain = 0
KSE2 110951Z 15007KT 24/19 A3003 RMK A01 T02350190  RH  076%=      5-min Rain = 0
KSE2 110952Z 14007KT 23/19 A3003 RMK A01 T02340190  RH  076%=      5-min Rain = 0
KSE2 110953Z 15008KT 23/19 A3003 RMK A01 T02340190  RH  076%=      5-min Rain = 0
KSE2 110954Z 15008KT 24/19 A3003 RMK A01 T02350190  RH  076%=      5-min Rain = 0
KSE2 110955Z 15007KT 23/19 A3003 RMK A01 T02340190  RH  076%=      5-min Rain = 0
KSE2 110956Z 14008KT 23/19 A3003 RMK A01 T02340190  RH  076%=      5-min Rain = 0
KSE2 110957Z 14007KT 23/19 A3003 RMK A01 T02340190  RH  076%=      5-min Rain = 0
KSE2 110958Z 15008KT 23/19 A3003 RMK A01 T02340190  RH  076%=      5-min Rain = 0
KSE2 110959Z 15008KT 23/19 A3003 RMK A01 T02340190  RH  077%=      5-min Rain = 0
KSE2 111000Z 15009KT 23/19 A3003 RMK A01 T02340190  RH  077%=      5-min Rain = 0
KSE2 111001Z 15008KT 23/19 A3003 RMK A01 T02340191  RH  077%=      5-min Rain = 0
KSE2 111002Z 15009KT 23/19 A3003 RMK A01 T02340190  RH  077%=      5-min Rain = 0
KSE2 111003Z 15008KT 23/19 A3003 RMK A01 T02340190  RH  077%=      5-min Rain = 0
KSE2 111004Z 15008KT 23/19 A3003 RMK A01 T02340191  RH  077%=      5-min Rain = 0
KSE2 111005Z 15006KT 23/19 A3003 RMK A01 T02340190  RH  077%=      5-min Rain = 0
KSE2 111006Z 15007KT 23/19 A3003 RMK A01 T02330190  RH  077%=      5-min Rain = 0
KSE2 111007Z 15009KT 23/19 A3003 RMK A01 T02330191  RH  077%=      5-min Rain = 0
KSE2 111008Z 15007KT 23/19 A3003 RMK A01 T02330191  RH  077%=      5-min Rain = 0
KSE2 111009Z 15007KT 23/19 A3003 RMK A01 T02330190  RH  077%=      5-min Rain = 0
KSE2 111010Z 15007KT 23/19 A3003 RMK A01 T02330191  RH  077%=      5-min Rain = 0
KSE2 111011Z 14008KT 23/19 A3003 RMK A01 T02330191  RH  077%=      5-min Rain = 0
KSE2 111012Z 15008KT 23/19 A3003 RMK A01 T02330191  RH  077%=      5-min Rain = 0
KSE2 111013Z 14007KT 23/19 A3003 RMK A01 T02330191  RH  077%=      5-min Rain = 0
KSE2 111014Z 15006KT 23/19 A3003 RMK A01 T02330191  RH  077%=      5-min Rain = 0
KSE2 111015Z 15008KT 23/19 A3003 RMK A01 T02320191  RH  078%=      5-min Rain = 0
KSE2 111016Z 15009KT 23/19 A3003 RMK A01 T02320191  RH  078%=      5-min Rain = 0
KSE2 111017Z 16009KT 23/19 A3003 RMK A01 T02320191  RH  078%=      5-min Rain = 0
KSE2 111018Z 15007KT 23/19 A3004 RMK A01 T02320191  RH  078%=      5-min Rain = 0
KSE2 111019Z 15008KT 23/19 A3004 RMK A01 T02320191  RH  078%=      5-min Rain = 0
KSE2 111020Z 14006KT 23/19 A3003 RMK A01 T02320191  RH  078%=      5-min Rain = 0
KSE2 111021Z 15007KT 23/19 A3004 RMK A01 T02320191  RH  078%=      5-min Rain = 0
KSE2 111022Z 15008KT 23/19 A3003 RMK A01 T02310191  RH  078%=      5-min Rain = 0
KSE2 111023Z 15008KT 23/19 A3003 RMK A01 T02310191  RH  078%=      5-min Rain = 0
KSE2 111024Z 15006KT 23/19 A3003 RMK A01 T02310191  RH  078%=      5-min Rain = 0
KSE2 111025Z 15007KT 23/19 A3003 RMK A01 T02310191  RH  078%=      5-min Rain = 0
KSE2 111026Z 16008KT 23/19 A3003 RMK A01 T02300191  RH  079%=      5-min Rain = 0
KSE2 111027Z 15009KT 23/19 A3003 RMK A01 T02300192  RH  079%=      5-min Rain = 0
KSE2 111028Z 16008KT 23/19 A3003 RMK A01 T02310192  RH  079%=      5-min Rain = 0
KSE2 111029Z 15007KT 23/19 A3003 RMK A01 T02310192  RH  079%=      5-min Rain = 0
KSE2 111030Z 14008KT 23/19 A3003 RMK A01 T02300191  RH  079%=      5-min Rain = 0
KSE2 111031Z 15007KT 23/19 A3003 RMK A01 T02290192  RH  079%=      5-min Rain = 0
KSE2 111032Z 15007KT 23/19 A3003 RMK A01 T02300192  RH  079%=      5-min Rain = 0
KSE2 111033Z 15008KT 23/19 A3003 RMK A01 T02300192  RH  079%=      5-min Rain = 0
KSE2 111034Z 15008KT 23/19 A3003 RMK A01 T02290192  RH  079%=      5-min Rain = 0
KSE2 111035Z 15007KT 23/19 A3003 RMK A01 T02290192  RH  080%=      5-min Rain = 0
KSE2 111036Z 15007KT 23/19 A3003 RMK A01 T02290192  RH  080%=      5-min Rain = 0
KSE2 111037Z 17006KT 23/19 A3003 RMK A01 T02290192  RH  080%=      5-min Rain = 0
KSE2 111038Z 16007KT 23/19 A3003 RMK A01 T02290192  RH  080%=      5-min Rain = 0
KSE2 111039Z 16006KT 23/19 A3003 RMK A01 T02280192  RH  080%=      5-min Rain = 0
KSE2 111040Z 15006KT 23/19 A3003 RMK A01 T02280192  RH  080%=      5-min Rain = 0
KSE2 111041Z 16005KT 23/19 A3003 RMK A01 T02280192  RH  080%=      5-min Rain = 0
KSE2 111042Z 16007KT 23/19 A3003 RMK A01 T02280192  RH  080%=      5-min Rain = 0
KSE2 111043Z 16006KT 23/19 A3003 RMK A01 T02280192  RH  080%=      5-min Rain = 0
KSE2 111044Z 16006KT 23/19 A3004 RMK A01 T02280192  RH  080%=      5-min Rain = 0
KSE2 111045Z 16005KT 23/19 A3004 RMK A01 T02280192  RH  080%=      5-min Rain = 0
KSE2 111046Z 16005KT 23/19 A3004 RMK A01 T02270192  RH  080%=      5-min Rain = 0
KSE2 111047Z 16006KT 23/19 A3004 RMK A01 T02270192  RH  081%=      5-min Rain = 0
KSE2 111048Z 16006KT 23/19 A3004 RMK A01 T02270192  RH  081%=      5-min Rain = 0
KSE2 111049Z 16006KT 23/19 A3004 RMK A01 T02270192  RH  081%=      5-min Rain = 0
KSE2 111050Z 16006KT 23/19 A3004 RMK A01 T02270192  RH  081%=      5-min Rain = 0
KSE2 111051Z 16004KT 23/19 A3004 RMK A01 T02270192  RH  081%=      5-min Rain = 0
KSE2 111052Z 16006KT 23/19 A3004 RMK A01 T02260192  RH  081%=      5-min Rain = 0
KSE2 111053Z 16005KT 23/19 A3004 RMK A01 T02260192  RH  081%=      5-min Rain = 0
KSE2 111054Z 16007KT 23/19 A3004 RMK A01 T02260192  RH  081%=      5-min Rain = 0
KSE2 111055Z 16006KT 23/19 A3004 RMK A01 T02260192  RH  081%=      5-min Rain = 0
KSE2 111056Z 16005KT 23/19 A3004 RMK A01 T02260192  RH  081%=      5-min Rain = 0
KSE2 111057Z 17005KT 23/19 A3004 RMK A01 T02260192  RH  081%=      5-min Rain = 0
KSE2 111058Z 16006KT 23/19 A3004 RMK A01 T02260192  RH  081%=      5-min Rain = 0
KSE2 111059Z 16007KT 23/19 A3004 RMK A01 T02260193  RH  081%=      5-min Rain = 0
KSE2 111100Z 16006KT 23/19 A3004 RMK A01 T02260193  RH  081%=      5-min Rain = 0
KSE2 111101Z 16006KT 23/19 A3004 RMK A01 T02260193  RH  082%=      5-min Rain = 0
KSE2 111102Z 16006KT 23/19 A3004 RMK A01 T02260193  RH  082%=      5-min Rain = 0
KSE2 111103Z 16008KT 23/19 A3004 RMK A01 T02260193  RH  082%=      5-min Rain = 0
KSE2 111104Z 15006KT 23/19 A3004 RMK A01 T02250193  RH  082%=      5-min Rain = 0
KSE2 111105Z 16006KT 23/19 A3004 RMK A01 T02260193  RH  082%=      5-min Rain = 0
KSE2 111106Z 15005KT 23/19 A3004 RMK A01 T02250193  RH  082%=      5-min Rain = 0
KSE2 111107Z 15006KT 23/19 A3004 RMK A01 T02250192  RH  082%=      5-min Rain = 0
KSE2 111108Z 15006KT 22/19 A3004 RMK A01 T02240192  RH  082%=      5-min Rain = 0
KSE2 111109Z 14005KT 22/19 A3004 RMK A01 T02240193  RH  082%=      5-min Rain = 0
KSE2 111110Z 15008KT 22/19 A3004 RMK A01 T02240192  RH  083%=      5-min Rain = 0
KSE2 111111Z 15007KT 22/19 A3004 RMK A01 T02240193  RH  083%=      5-min Rain = 0
KSE2 111112Z 15006KT 22/19 A3004 RMK A01 T02240194  RH  083%=      5-min Rain = 0
KSE2 111113Z 15006KT 22/19 A3004 RMK A01 T02240193  RH  083%=      5-min Rain = 0
KSE2 111114Z 16007KT 22/19 A3004 RMK A01 T02240193  RH  083%=      5-min Rain = 0
KSE2 111115Z 15007KT 22/19 A3004 RMK A01 T02240194  RH  083%=      5-min Rain = 0
KSE2 111116Z 15009KT 22/19 A3004 RMK A01 T02240194  RH  083%=      5-min Rain = 0
KSE2 111117Z 16005KT 22/19 A3004 RMK A01 T02240194  RH  084%=      5-min Rain = 0
KSE2 111118Z 16007KT 22/20 A3004 RMK A01 T02240195  RH  084%=      5-min Rain = 0
KSE2 111119Z 16008KT 22/20 A3004 RMK A01 T02240195  RH  084%=      5-min Rain = 0
KSE2 111120Z 15008KT 22/20 A3004 RMK A01 T02240196  RH  084%=      5-min Rain = 0
KSE2 111121Z 15007KT 22/20 A3004 RMK A01 T02240195  RH  084%=      5-min Rain = 0
KSE2 111122Z 17006KT 22/20 A3004 RMK A01 T02240196  RH  084%=      5-min Rain = 0
KSE2 111123Z 15007KT 22/20 A3005 RMK A01 T02240196  RH  084%=      5-min Rain = 0
KSE2 111124Z 16007KT 22/20 A3005 RMK A01 T02240196  RH  085%=      5-min Rain = 0
KSE2 111125Z 16007KT 22/20 A3004 RMK A01 T02240197  RH  085%=      5-min Rain = 0
KSE2 111126Z 16009KT 22/20 A3005 RMK A01 T02240197  RH  085%=      5-min Rain = 0
KSE2 111127Z 17007KT 22/20 A3005 RMK A01 T02240198  RH  085%=      5-min Rain = 0
KSE2 111128Z 16006KT 22/20 A3005 RMK A01 T02240197  RH  085%=      5-min Rain = 0
KSE2 111129Z 16009KT 22/20 A3005 RMK A01 T02240198  RH  085%=      5-min Rain = 0
KSE2 111130Z 16008KT 22/20 A3005 RMK A01 T02240198  RH  086%=      5-min Rain = 0
KSE2 111131Z 16008KT 22/20 A3005 RMK A01 T02240198  RH  085%=      5-min Rain = 0
KSE2 111132Z 18006KT 22/20 A3005 RMK A01 T02240198  RH  085%=      5-min Rain = 0
KSE2 111133Z 16007KT 22/20 A3005 RMK A01 T02240198  RH  085%=      5-min Rain = 0
KSE2 111134Z 17006KT 22/20 A3005 RMK A01 T02240198  RH  086%=      5-min Rain = 0
KSE2 111135Z 17009KT 22/20 A3005 RMK A01 T02230199  RH  086%=      5-min Rain = 0
KSE2 111136Z 17006KT 22/20 A3005 RMK A01 T02230199  RH  086%=      5-min Rain = 0
KSE2 111137Z 18007KT 22/20 A3005 RMK A01 T02230199  RH  086%=      5-min Rain = 0
KSE2 111138Z 17007KT 22/20 A3005 RMK A01 T02230198  RH  086%=      5-min Rain = 0
KSE2 111139Z 18007KT 22/20 A3005 RMK A01 T02220198  RH  086%=      5-min Rain = 0
KSE2 111140Z 17007KT 22/20 A3005 RMK A01 T02220199  RH  086%=      5-min Rain = 0
KSE2 111141Z 17006KT 22/20 A3005 RMK A01 T02230199  RH  087%=      5-min Rain = 0
KSE2 111142Z 17008KT 22/20 A3005 RMK A01 T02220199  RH  087%=      5-min Rain = 0
KSE2 111143Z 17007KT 22/20 A3005 RMK A01 T02220199  RH  087%=      5-min Rain = 0
KSE2 111144Z 17007KT 22/20 A3005 RMK A01 T02220199  RH  087%=      5-min Rain = 0
KSE2 111145Z 16008KT 22/20 A3005 RMK A01 T02220199  RH  087%=      5-min Rain = 0
KSE2 111146Z 17007KT 22/20 A3005 RMK A01 T02220199  RH  087%=      5-min Rain = 0
KSE2 111147Z 17007KT 22/20 A3005 RMK A01 T02220199  RH  087%=      5-min Rain = 0
KSE2 111148Z 18008KT 22/20 A3005 RMK A01 T02220200  RH  087%=      5-min Rain = 0
KSE2 111149Z 17006KT 22/20 A3005 RMK A01 T02220200  RH  087%=      5-min Rain = 0
KSE2 111150Z 18007KT 22/20 A3005 RMK A01 T02220199  RH  087%=      5-min Rain = 0
KSE2 111151Z 18005KT 22/20 A3005 RMK A01 T02220199  RH  087%=      5-min Rain = 0
KSE2 111152Z 18006KT 22/20 A3005 RMK A01 T02210199  RH  087%=      5-min Rain = 0
KSE2 111153Z 17007KT 22/20 A3005 RMK A01 T02210199  RH  087%=      5-min Rain = 0
KSE2 111154Z 18006KT 22/20 A3005 RMK A01 T02210199  RH  087%=      5-min Rain = 0
KSE2 111155Z 18007KT 22/20 A3005 RMK A01 T02210199  RH  088%=      5-min Rain = 0
KSE2 111156Z 18006KT 22/20 A3005 RMK A01 T02210199  RH  088%=      5-min Rain = 0
KSE2 111157Z 18006KT 22/20 A3005 RMK A01 T02200199  RH  088%=      5-min Rain = 0
KSE2 111158Z 17008KT 22/20 A3005 RMK A01 T02200199  RH  088%=      5-min Rain = 0
KSE2 111159Z 18007KT 22/20 A3005 RMK A01 T02200199  RH  088%=      5-min Rain = 0
KSE2 111200Z 18008KT 22/20 A3005 RMK A01 T02200199  RH  088%=      5-min Rain = 0
KSE2 111201Z 18008KT 22/20 A3005 RMK A01 T02200199  RH  088%=      5-min Rain = 0
KSE2 111202Z 17007KT 22/20 A3006 RMK A01 T02200199  RH  088%=      5-min Rain = 0
KSE2 111203Z 18006KT 22/20 A3006 RMK A01 T02200199  RH  088%=      5-min Rain = 0
KSE2 111204Z 17008KT 22/20 A3006 RMK A01 T02200199  RH  088%=      5-min Rain = 0
KSE2 111205Z 17007KT 22/20 A3006 RMK A01 T02200199  RH  088%=      5-min Rain = 0
KSE2 111206Z 17007KT 22/20 A3006 RMK A01 T02200199  RH  088%=      5-min Rain = 0
KSE2 111207Z 16006KT 22/20 A3006 RMK A01 T02200199  RH  088%=      5-min Rain = 0
KSE2 111208Z 17007KT 22/20 A3006 RMK A01 T02200199  RH  088%=      5-min Rain = 0
KSE2 111209Z 16006KT 22/20 A3006 RMK A01 T02200199  RH  088%=      5-min Rain = 0
KSE2 111210Z 16007KT 22/20 A3006 RMK A01 T02190199  RH  088%=      5-min Rain = 0
KSE2 111211Z 17007KT 22/20 A3006 RMK A01 T02190199  RH  088%=      5-min Rain = 0
KSE2 111212Z 17006KT 22/20 A3006 RMK A01 T02190199  RH  088%=      5-min Rain = 0
KSE2 111213Z 16007KT 22/20 A3006 RMK A01 T02190199  RH  088%=      5-min Rain = 0
KSE2 111214Z 17007KT 22/20 A3006 RMK A01 T02190199  RH  088%=      5-min Rain = 0
KSE2 111215Z 17007KT 22/20 A3006 RMK A01 T02190199  RH  088%=      5-min Rain = 0
KSE2 111216Z 17007KT 22/20 A3006 RMK A01 T02190199  RH  089%=      5-min Rain = 0
KSE2 111217Z 17008KT 22/20 A3006 RMK A01 T02190199  RH  089%=      5-min Rain = 0
KSE2 111218Z 16007KT 22/20 A3006 RMK A01 T02190199  RH  089%=      5-min Rain = 0
KSE2 111219Z 16006KT 22/20 A3006 RMK A01 T02190199  RH  088%=      5-min Rain = 0
KSE2 111220Z 16007KT 22/20 A3006 RMK A01 T02190199  RH  088%=      5-min Rain = 0
KSE2 111221Z 17007KT 22/20 A3006 RMK A01 T02190199  RH  089%=      5-min Rain = 0
KSE2 111222Z 17008KT 22/20 A3006 RMK A01 T02180199  RH  089%=      5-min Rain = 0
KSE2 111223Z 17008KT 22/20 A3007 RMK A01 T02190199  RH  089%=      5-min Rain = 0
KSE2 111224Z 17007KT 22/20 A3007 RMK A01 T02190199  RH  088%=      5-min Rain = 0
KSE2 111225Z 16007KT 22/20 A3007 RMK A01 T02190198  RH  088%=      5-min Rain = 0
KSE2 111226Z 17006KT 22/20 A3007 RMK A01 T02190198  RH  088%=      5-min Rain = 0
KSE2 111227Z 17007KT 22/20 A3007 RMK A01 T02190198  RH  088%=      5-min Rain = 0
KSE2 111228Z 16009KT 22/20 A3007 RMK A01 T02190199  RH  088%=      5-min Rain = 0
KSE2 111229Z 17007KT 22/20 A3007 RMK A01 T02200199  RH  088%=      5-min Rain = 0
KSE2 111230Z 17009KT 22/20 A3007 RMK A01 T02200199  RH  088%=      5-min Rain = 0
KSE2 111231Z 16008KT 22/20 A3007 RMK A01 T02210199  RH  088%=      5-min Rain = 0
KSE2 111232Z 16009KT 22/20 A3007 RMK A01 T02210199  RH  087%=      5-min Rain = 0
KSE2 111233Z 17008KT 22/20 A3007 RMK A01 T02210199  RH  087%=      5-min Rain = 0
KSE2 111234Z 17009KT 22/20 A3007 RMK A01 T02210199  RH  087%=      5-min Rain = 0
KSE2 111235Z 16008KT 22/20 A3007 RMK A01 T02220199  RH  087%=      5-min Rain = 0
KSE2 111236Z 17008KT 22/20 A3007 RMK A01 T02220199  RH  087%=      5-min Rain = 0
KSE2 111237Z 16007KT 22/20 A3007 RMK A01 T02220199  RH  087%=      5-min Rain = 0
KSE2 111238Z 17009KT 22/20 A3007 RMK A01 T02230199  RH  086%=      5-min Rain = 0
KSE2 111239Z 17008KT 22/20 A3007 RMK A01 T02230199  RH  086%=      5-min Rain = 0
KSE2 111240Z 16007KT 22/20 A3007 RMK A01 T02230199  RH  086%=      5-min Rain = 0
KSE2 111241Z 17005G10KT 22/20 A3007 RMK A01 T02240199  RH  086%=      5-min Rain = 0
KSE2 111242Z 17007KT 22/20 A3007 RMK A01 T02240199  RH  086%=      5-min Rain = 0
KSE2 111243Z 17008KT 22/20 A3007 RMK A01 T02240199  RH  086%=      5-min Rain = 0
KSE2 111244Z 17007G12KT 22/20 A3007 RMK A01 T02240199  RH  086%=      5-min Rain = 0
KSE2 111245Z 17008KT 22/20 A3007 RMK A01 T02240199  RH  086%=      5-min Rain = 0
KSE2 111246Z 17007KT 22/20 A3007 RMK A01 T02240199  RH  086%=      5-min Rain = 0
KSE2 111247Z 16006KT 23/20 A3007 RMK A01 T02250199  RH  086%=      5-min Rain = 0
KSE2 111248Z 17008KT 23/20 A3007 RMK A01 T02250200  RH  086%=      5-min Rain = 0
KSE2 111249Z 17008KT 23/20 A3008 RMK A01 T02250200  RH  085%=      5-min Rain = 0
KSE2 111250Z 16007KT 23/20 A3008 RMK A01 T02260200  RH  085%=      5-min Rain = 0
KSE2 111251Z 17009KT 23/20 A3008 RMK A01 T02260200  RH  085%=      5-min Rain = 0
KSE2 111252Z 16006KT 23/20 A3008 RMK A01 T02260200  RH  085%=      5-min Rain = 0
KSE2 111253Z 17006KT 23/20 A3008 RMK A01 T02270200  RH  085%=      5-min Rain = 0
KSE2 111254Z 17005KT 23/20 A3008 RMK A01 T02270200  RH  085%=      5-min Rain = 0
KSE2 111255Z 16006KT 23/20 A3008 RMK A01 T02270200  RH  085%=      5-min Rain = 0
KSE2 111256Z 17007KT 23/20 A3008 RMK A01 T02280201  RH  085%=      5-min Rain = 0
KSE2 111257Z 17006KT 23/20 A3008 RMK A01 T02280200  RH  084%=      5-min Rain = 0
KSE2 111258Z 17007KT 23/20 A3008 RMK A01 T02280200  RH  084%=      5-min Rain = 0
KSE2 111259Z 17008KT 23/20 A3008 RMK A01 T02280200  RH  084%=      5-min Rain = 0
KSE2 111300Z 17006KT 23/20 A3008 RMK A01 T02280200  RH  084%=      5-min Rain = 0
KSE2 111301Z 16007KT 23/20 A3008 RMK A01 T02280201  RH  084%=      5-min Rain = 0
KSE2 111302Z 17006KT 23/20 A3008 RMK A01 T02280200  RH  084%=      5-min Rain = 0
KSE2 111303Z 17005KT 23/20 A3008 RMK A01 T02290200  RH  084%=      5-min Rain = 0
KSE2 111304Z 17005KT 23/20 A3008 RMK A01 T02290201  RH  084%=      5-min Rain = 0
KSE2 111305Z 17004KT 23/20 A3008 RMK A01 T02290201  RH  084%=      5-min Rain = 0
KSE2 111306Z 15005KT 23/20 A3008 RMK A01 T02300201  RH  084%=      5-min Rain = 0
KSE2 111307Z 15007KT 23/20 A3008 RMK A01 T02300201  RH  083%=      5-min Rain = 0
KSE2 111308Z 16006KT 23/20 A3008 RMK A01 T02310201  RH  083%=      5-min Rain = 0
KSE2 111309Z 15006KT 23/20 A3008 RMK A01 T02310200  RH  083%=      5-min Rain = 0
KSE2 111310Z 16004KT 23/20 A3008 RMK A01 T02310201  RH  083%=      5-min Rain = 0
KSE2 111311Z 16003KT 23/20 A3008 RMK A01 T02320201  RH  083%=      5-min Rain = 0
KSE2 111312Z 16005KT 23/20 A3008 RMK A01 T02330202  RH  083%=      5-min Rain = 0
KSE2 111313Z 16006KT 23/20 A3008 RMK A01 T02330201  RH  082%=      5-min Rain = 0
KSE2 111314Z 17007KT 23/20 A3009 RMK A01 T02340201  RH  082%=      5-min Rain = 0
KSE2 111315Z 17006KT 23/20 A3009 RMK A01 T02340201  RH  082%=      5-min Rain = 0
KSE2 111316Z 18007KT 24/20 A3009 RMK A01 T02350201  RH  081%=      5-min Rain = 0
KSE2 111317Z 17008KT 24/20 A3009 RMK A01 T02350201  RH  081%=      5-min Rain = 0
KSE2 111318Z 17005KT 24/20 A3009 RMK A01 T02350201  RH  081%=      5-min Rain = 0
KSE2 111319Z 16007KT 24/20 A3009 RMK A01 T02350202  RH  081%=      5-min Rain = 0
KSE2 111320Z 16006KT 24/20 A3009 RMK A01 T02350202  RH  081%=      5-min Rain = 0
KSE2 111321Z 16008KT 24/20 A3009 RMK A01 T02350201  RH  081%=      5-min Rain = 0
KSE2 111322Z 17007KT 24/20 A3009 RMK A01 T02360202  RH  081%=      5-min Rain = 0
KSE2 111323Z 18007KT 24/20 A3009 RMK A01 T02360202  RH  081%=      5-min Rain = 0
KSE2 111324Z 16008KT 24/20 A3009 RMK A01 T02370202  RH  080%=      5-min Rain = 0
KSE2 111325Z 16006KT 24/20 A3009 RMK A01 T02380202  RH  080%=      5-min Rain = 0
KSE2 111326Z 17004KT 24/20 A3009 RMK A01 T02380202  RH  081%=      5-min Rain = 0
KSE2 111327Z 16008KT 24/20 A3009 RMK A01 T02380202  RH  080%=      5-min Rain = 0
KSE2 111328Z 17009KT 24/20 A3009 RMK A01 T02380202  RH  080%=      5-min Rain = 0
KSE2 111329Z 18008KT 24/20 A3009 RMK A01 T02390202  RH  080%=      5-min Rain = 0
KSE2 111330Z 17006KT 24/20 A3009 RMK A01 T02390202  RH  080%=      5-min Rain = 0
KSE2 111331Z 18005KT 24/20 A3009 RMK A01 T02390202  RH  080%=      5-min Rain = 0
KSE2 111332Z 16006G11KT 24/20 A3009 RMK A01 T02400203  RH  080%=      5-min Rain = 0
KSE2 111333Z 16009KT 24/20 A301 RMK A01 T02400203  RH  079%=      5-min Rain = 0
KSE2 111334Z 17008KT 24/20 A301 RMK A01 T02400202  RH  079%=      5-min Rain = 0
KSE2 111335Z 16007KT 24/20 A301 RMK A01 T02400203  RH  080%=      5-min Rain = 0
KSE2 111336Z 17008KT 24/20 A301 RMK A01 T02400203  RH  080%=      5-min Rain = 0
KSE2 111337Z 17005KT 24/20 A301 RMK A01 T02400203  RH  080%=      5-min Rain = 0
KSE2 111338Z 18006KT 24/20 A301 RMK A01 T02400203  RH  080%=      5-min Rain = 0
KSE2 111339Z 15005KT 24/20 A301 RMK A01 T02410204  RH  080%=      5-min Rain = 0
KSE2 111340Z 16006KT 24/20 A301 RMK A01 T02430204  RH  079%=      5-min Rain = 0
KSE2 111341Z 16007KT 24/20 A301 RMK A01 T02440204  RH  078%=      5-min Rain = 0
KSE2 111342Z 16007KT 24/20 A301 RMK A01 T02440204  RH  078%=      5-min Rain = 0
KSE2 111343Z 16006KT 25/20 A301 RMK A01 T02450204  RH  078%=      5-min Rain = 0
KSE2 111344Z 17005KT 25/20 A301 RMK A01 T02450204  RH  078%=      5-min Rain = 0
KSE2 111345Z 17004KT 25/20 A301 RMK A01 T02450204  RH  078%=      5-min Rain = 0
KSE2 111346Z 19005KT 25/21 A301 RMK A01 T02470205  RH  078%=      5-min Rain = 0
KSE2 111347Z 17004KT 25/21 A301 RMK A01 T02480205  RH  077%=      5-min Rain = 0
KSE2 111348Z 17007KT 25/21 A301 RMK A01 T02480205  RH  077%=      5-min Rain = 0
KSE2 111349Z 18009KT 25/21 A301 RMK A01 T02490205  RH  076%=      5-min Rain = 0
KSE2 111350Z 17006KT 25/21 A301 RMK A01 T02490205  RH  076%=      5-min Rain = 0
KSE2 111351Z 19007KT 25/21 A301 RMK A01 T02490205  RH  076%=      5-min Rain = 0
KSE2 111352Z 18009KT 25/20 A301 RMK A01 T02490204  RH  076%=      5-min Rain = 0
KSE2 111353Z 17009KT 25/20 A301 RMK A01 T02490204  RH  076%=      5-min Rain = 0
KSE2 111354Z 17008KT 25/20 A301 RMK A01 T02490204  RH  076%=      5-min Rain = 0
KSE2 111355Z 18007KT 25/20 A301 RMK A01 T02490204  RH  076%=      5-min Rain = 0
KSE2 111356Z 18007KT 25/21 A301 RMK A01 T02490205  RH  076%=      5-min Rain = 0
KSE2 111357Z 17006KT 25/21 A301 RMK A01 T02490205  RH  076%=      5-min Rain = 0
KSE2 111358Z 17009KT 25/21 A301 RMK A01 T02500205  RH  076%=      5-min Rain = 0
KSE2 111359Z 17007KT 25/20 A301 RMK A01 T02500204  RH  075%=      5-min Rain = 0
KSE2 111400Z 16006KT 25/21 A301 RMK A01 T02500205  RH  076%=      5-min Rain = 0
KSE2 111401Z 16009KT 25/21 A301 RMK A01 T02510205  RH  075%=      5-min Rain = 0
KSE2 111402Z 17009KT 25/21 A301 RMK A01 T02510205  RH  075%=      5-min Rain = 0
KSE2 111403Z 18011KT 25/20 A301 RMK A01 T02520204  RH  075%=      5-min Rain = 0
KSE2 111404Z 19010KT 25/20 A301 RMK A01 T02520204  RH  075%=      5-min Rain = 0
KSE2 111405Z 18010KT 25/21 A301 RMK A01 T02530205  RH  075%=      5-min Rain = 0
KSE2 111406Z 18008KT 25/20 A301 RMK A01 T02520204  RH  075%=      5-min Rain = 0
KSE2 111407Z 18005KT 25/20 A301 RMK A01 T02530204  RH  075%=      5-min Rain = 0
KSE2 111408Z 17006KT 25/21 A301 RMK A01 T02540205  RH  074%=      5-min Rain = 0
KSE2 111409Z 16009KT 26/21 A301 RMK A01 T02560205  RH  074%=      5-min Rain = 0
KSE2 111410Z 17008KT 26/21 A301 RMK A01 T02560205  RH  073%=      5-min Rain = 0
KSE2 111411Z 18007KT 26/21 A301 RMK A01 T02560205  RH  074%=      5-min Rain = 0
KSE2 111412Z 18006KT 26/21 A301 RMK A01 T02570205  RH  073%=      5-min Rain = 0
KSE2 111413Z 19008KT 26/20 A301 RMK A01 T02580204  RH  072%=      5-min Rain = 0
KSE2 111414Z 18008KT 26/20 A301 RMK A01 T02570204  RH  072%=      5-min Rain = 0
KSE2 111415Z 19008G13KT 26/20 A301 RMK A01 T02570204  RH  072%=      5-min Rain = 0
KSE2 111416Z 18009KT 26/20 A301 RMK A01 T02580204  RH  072%=      5-min Rain = 0
KSE2 111417Z 17011KT 26/20 A301 RMK A01 T02590204  RH  072%=      5-min Rain = 0
KSE2 111418Z 17009KT 26/20 A301 RMK A01 T02590203  RH  071%=      5-min Rain = 0
KSE2 111419Z 17010KT 26/20 A301 RMK A01 T02590203  RH  071%=      5-min Rain = 0
KSE2 111420Z 16010KT 26/20 A301 RMK A01 T02580203  RH  071%=      5-min Rain = 0
KSE2 111421Z 16010KT 26/20 A301 RMK A01 T02580204  RH  072%=      5-min Rain = 0
KSE2 111422Z 16007KT 26/20 A301 RMK A01 T02580204  RH  072%=      5-min Rain = 0
KSE2 111423Z 18010KT 26/20 A301 RMK A01 T02600204  RH  071%=      5-min Rain = 0
KSE2 111424Z 16008KT 26/20 A301 RMK A01 T02610204  RH  071%=      5-min Rain = 0
KSE2 111425Z 16008KT 26/20 A301 RMK A01 T02610204  RH  071%=      5-min Rain = 0
KSE2 111426Z 17007KT 26/20 A301 RMK A01 T02620204  RH  070%=      5-min Rain = 0
KSE2 111427Z 19009KT 26/20 A301 RMK A01 T02630203  RH  070%=      5-min Rain = 0
KSE2 111428Z 19012KT 26/20 A301 RMK A01 T02630203  RH  070%=      5-min Rain = 0
KSE2 111429Z 18011KT 26/20 A301 RMK A01 T02620203  RH  070%=      5-min Rain = 0
KSE2 111430Z 18010KT 26/20 A301 RMK A01 T02600203  RH  071%=      5-min Rain = 0
KSE2 111431Z 18008KT 26/20 A301 RMK A01 T02590204  RH  071%=      5-min Rain = 0
KSE2 111432Z 18009KT 26/21 A301 RMK A01 T02600205  RH  071%=      5-min Rain = 0
KSE2 111433Z 17006KT 26/21 A301 RMK A01 T02600205  RH  072%=      5-min Rain = 0
KSE2 111434Z 18009KT 26/21 A301 RMK A01 T02630206  RH  071%=      5-min Rain = 0
KSE2 111435Z 17008KT 26/21 A301 RMK A01 T02640205  RH  070%=      5-min Rain = 0
KSE2 111436Z 19007G12KT 26/20 A301 RMK A01 T02640204  RH  070%=      5-min Rain = 0
KSE2 111437Z 17008KT 26/20 A301 RMK A01 T02640204  RH  070%=      5-min Rain = 0
KSE2 111438Z 19008KT 27/21 A301 RMK A01 T02650206  RH  070%=      5-min Rain = 0
KSE2 111439Z 18008KT 27/21 A301 RMK A01 T02670205  RH  069%=      5-min Rain = 0
KSE2 111440Z 17010KT 27/20 A301 RMK A01 T02670204  RH  068%=      5-min Rain = 0
KSE2 111441Z 16007G12KT 27/20 A301 RMK A01 T02670204  RH  068%=      5-min Rain = 0
KSE2 111442Z 16009KT 27/21 A301 RMK A01 T02680205  RH  068%=      5-min Rain = 0
KSE2 111443Z 16008G13KT 27/21 A301 RMK A01 T02670205  RH  069%=      5-min Rain = 0
KSE2 111444Z 18008KT 27/21 A301 RMK A01 T02670205  RH  069%=      5-min Rain = 0
KSE2 111445Z 20010KT 27/20 A301 RMK A01 T02670204  RH  068%=      5-min Rain = 0
KSE2 111446Z 19006G12KT 27/20 A301 RMK A01 T02670203  RH  068%=      5-min Rain = 0
KSE2 111447Z 20008KT 27/20 A301 RMK A01 T02680203  RH  068%=      5-min Rain = 0
KSE2 111448Z 19008KT 27/20 A301 RMK A01 T02680204  RH  068%=      5-min Rain = 0
KSE2 111449Z 20007G12KT 27/21 A301 RMK A01 T02690205  RH  068%=      5-min Rain = 0
KSE2 111450Z 21007KT 27/21 A301 RMK A01 T02700205  RH  067%=      5-min Rain = 0
KSE2 111451Z 17005KT 27/21 A301 RMK A01 T02710205  RH  067%=      5-min Rain = 0
KSE2 111452Z 18010KT 27/21 A301 RMK A01 T02730205  RH  066%=      5-min Rain = 0
KSE2 111453Z 18008KT 27/20 A301 RMK A01 T02720204  RH  066%=      5-min Rain = 0
KSE2 111454Z 16004KT 27/20 A301 RMK A01 T02690204  RH  067%=      5-min Rain = 0
KSE2 111455Z 17008KT 27/21 A301 RMK A01 T02710205  RH  067%=      5-min Rain = 0
KSE2 111456Z 16009KT 27/20 A301 RMK A01 T02720204  RH  066%=      5-min Rain = 0
KSE2 111457Z 16010KT 27/20 A301 RMK A01 T02710204  RH  067%=      5-min Rain = 0
KSE2 111458Z 17009KT 27/20 A301 RMK A01 T02710204  RH  067%=      5-min Rain = 0
KSE2 111459Z 18008KT 27/20 A301 RMK A01 T02720203  RH  066%=      5-min Rain = 0
KSE2 111500Z 18009KT 27/20 A301 RMK A01 T02740204  RH  066%=      5-min Rain = 0
KSE2 111501Z 18010KT 28/20 A301 RMK A01 T02750203  RH  065%=      5-min Rain = 0
KSE2 111502Z 17006KT 27/20 A301 RMK A01 T02740200  RH  064%=      5-min Rain = 0
KSE2 111503Z 18006KT 27/20 A301 RMK A01 T02740201  RH  064%=      5-min Rain = 0
KSE2 111504Z 20005KT 27/20 A301 RMK A01 T02740202  RH  064%=      5-min Rain = 0
KSE2 111505Z 20007KT 28/20 A301 RMK A01 T02750202  RH  064%=      5-min Rain = 0
KSE2 111506Z 16006KT 27/20 A301 RMK A01 T02740204  RH  065%=      5-min Rain = 0
KSE2 111507Z 16009KT 28/20 A301 RMK A01 T02760203  RH  065%=      5-min Rain = 0
KSE2 111508Z 16012KT 28/20 A301 RMK A01 T02780201  RH  063%=      5-min Rain = 0
KSE2 111509Z 17009KT 28/20 A301 RMK A01 T02780201  RH  063%=      5-min Rain = 0
KSE2 111510Z 17007KT 28/20 A301 RMK A01 T02780201  RH  063%=      5-min Rain = 0
KSE2 111511Z 17007KT 28/20 A301 RMK A01 T02800201  RH  062%=      5-min Rain = 0
KSE2 111512Z 18006KT 28/20 A301 RMK A01 T02810201  RH  062%=      5-min Rain = 0
KSE2 111513Z 19010KT 28/20 A301 RMK A01 T02820201  RH  061%=      5-min Rain = 0
KSE2 111514Z 18011KT 28/20 A301 RMK A01 T02820200  RH  061%=      5-min Rain = 0
KSE2 111515Z 18010KT 28/20 A301 RMK A01 T02820198  RH  060%=      5-min Rain = 0
KSE2 111516Z 18007KT 28/20 A301 RMK A01 T02800197  RH  061%=      5-min Rain = 0
KSE2 111517Z 20007KT 28/20 A301 RMK A01 T02800199  RH  061%=      5-min Rain = 0
KSE2 111518Z 20009KT 28/20 A301 RMK A01 T02800199  RH  061%=      5-min Rain = 0
KSE2 111519Z 18008KT 28/20 A301 RMK A01 T02800198  RH  061%=      5-min Rain = 0
KSE2 111520Z 16007KT 28/20 A301 RMK A01 T02800198  RH  061%=      5-min Rain = 0
KSE2 111521Z 15008KT 28/20 A301 RMK A01 T02820199  RH  061%=      5-min Rain = 0
KSE2 111522Z 19008KT 28/20 A301 RMK A01 T02830200  RH  061%=      5-min Rain = 0
KSE2 111523Z 20008KT 28/20 A301 RMK A01 T02840199  RH  060%=      5-min Rain = 0
KSE2 111524Z 17008KT 29/20 A301 RMK A01 T02850197  RH  059%=      5-min Rain = 0
KSE2 111525Z 18008KT 29/20 A301 RMK A01 T02850198  RH  059%=      5-min Rain = 0
KSE2 111526Z 19010KT 29/20 A301 RMK A01 T02850199  RH  060%=      5-min Rain = 0
KSE2 111527Z 19010KT 28/20 A301 RMK A01 T02840198  RH  060%=      5-min Rain = 0
KSE2 111528Z 18005KT 28/20 A301 RMK A01 T02810196  RH  060%=      5-min Rain = 0
KSE2 111529Z 18006KT 28/20 A301 RMK A01 T02810196  RH  060%=      5-min Rain = 0
KSE2 111530Z 17006KT 28/20 A301 RMK A01 T02810197  RH  061%=      5-min Rain = 0
KSE2 111531Z 14009KT 28/20 A301 RMK A01 T02820198  RH  060%=      5-min Rain = 0
KSE2 111532Z 14008KT 28/20 A301 RMK A01 T02840197  RH  059%=      5-min Rain = 0
KSE2 111533Z 18008KT 28/20 A301 RMK A01 T02840197  RH  059%=      5-min Rain = 0
KSE2 111534Z 20008KT 29/20 A301 RMK A01 T02860200  RH  059%=      5-min Rain = 0
KSE2 111535Z 19006KT 29/20 A301 RMK A01 T02860199  RH  059%=      5-min Rain = 0
KSE2 111536Z 15007G12KT 28/20 A301 RMK A01 T02840199  RH  060%=      5-min Rain = 0
KSE2 111537Z 15009KT 28/20 A301 RMK A01 T02840198  RH  060%=      5-min Rain = 0
KSE2 111538Z 14007KT 28/20 A301 RMK A01 T02840199  RH  060%=      5-min Rain = 0
KSE2 111539Z 20006KT 29/20 A301 RMK A01 T02850199  RH  060%=      5-min Rain = 0
KSE2 111540Z 17006KT 29/20 A301 RMK A01 T02860200  RH  060%=      5-min Rain = 0
KSE2 111541Z 17007G13KT 29/20 A301 RMK A01 T02870202  RH  060%=      5-min Rain = 0
KSE2 111542Z 17006KT 29/20 A301 RMK A01 T02900202  RH  059%=      5-min Rain = 0
KSE2 111543Z 17006KT 29/20 A3011 RMK A01 T02920201  RH  058%=      5-min Rain = 0
KSE2 111544Z 18006KT 29/20 A3011 RMK A01 T02930198  RH  056%=      5-min Rain = 0
KSE2 111545Z 19005KT 29/20 A3011 RMK A01 T02930196  RH  056%=      5-min Rain = 0
KSE2 111546Z 18007KT 29/20 A3011 RMK A01 T02920196  RH  056%=      5-min Rain = 0
KSE2 111547Z 18003KT 29/20 A3011 RMK A01 T02910196  RH  057%=      5-min Rain = 0
KSE2 111548Z 21007KT 29/20 A3011 RMK A01 T02900198  RH  058%=      5-min Rain = 0
KSE2 111549Z 21006KT 29/20 A3011 RMK A01 T02900195  RH  057%=      5-min Rain = 0
KSE2 111550Z 21009KT 29/20 A3011 RMK A01 T02900196  RH  057%=      5-min Rain = 0
KSE2 111551Z 21009KT 29/20 A3011 RMK A01 T02910195  RH  056%=      5-min Rain = 0
KSE2 111552Z 19005KT 29/20 A3011 RMK A01 T02900197  RH  057%=      5-min Rain = 0
KSE2 111553Z 19007KT 29/20 A3011 RMK A01 T02930198  RH  057%=      5-min Rain = 0
KSE2 111554Z 20007KT 29/20 A3011 RMK A01 T02930198  RH  057%=      5-min Rain = 0
KSE2 111555Z 19007KT 29/20 A3011 RMK A01 T02930198  RH  057%=      5-min Rain = 0
KSE2 111556Z 19008G13KT 29/20 A3011 RMK A01 T02930198  RH  057%=      5-min Rain = 0
KSE2 111557Z 19010KT 29/20 A3011 RMK A01 T02940198  RH  056%=      5-min Rain = 0
KSE2 111558Z 18007KT 29/20 A301 RMK A01 T02920196  RH  056%=      5-min Rain = 0
KSE2 111559Z 19010KT 29/20 A301 RMK A01 T02910198  RH  057%=      5-min Rain = 0
KSE2 111600Z 18008KT 29/20 A301 RMK A01 T02910198  RH  057%=      5-min Rain = 0
KSE2 111601Z 19006KT 29/20 A301 RMK A01 T02910199  RH  057%=      5-min Rain = 0
KSE2 111602Z 18006G11KT 29/20 A301 RMK A01 T02920197  RH  057%=      5-min Rain = 0
KSE2 111603Z 18007KT 29/20 A301 RMK A01 T02930198  RH  057%=      5-min Rain = 0
KSE2 111604Z 18010KT 30/20 A301 RMK A01 T02970198  RH  056%=      5-min Rain = 0
KSE2 111605Z 19008KT 30/20 A301 RMK A01 T02980196  RH  054%=      5-min Rain = 0
KSE2 111606Z 18007KT 30/20 A301 RMK A01 T02980197  RH  055%=      5-min Rain = 0
KSE2 111607Z 18011KT 30/20 A301 RMK A01 T02990198  RH  055%=      5-min Rain = 0
KSE2 111608Z 18008KT 30/20 A301 RMK A01 T02990196  RH  054%=      5-min Rain = 0
KSE2 111609Z 17007KT 30/20 A301 RMK A01 T02970196  RH  055%=      5-min Rain = 0
KSE2 111610Z 19008KT 30/19 A301 RMK A01 T02970194  RH  054%=      5-min Rain = 0
KSE2 111611Z 19007KT 30/20 A301 RMK A01 T02960197  RH  055%=      5-min Rain = 0
KSE2 111612Z 20007KT 30/20 A301 RMK A01 T02970197  RH  055%=      5-min Rain = 0
KSE2 111613Z 19006KT 30/20 A301 RMK A01 T02970198  RH  055%=      5-min Rain = 0
KSE2 111614Z 18007KT 30/20 A301 RMK A01 T02970197  RH  055%=      5-min Rain = 0
KSE2 111615Z 19006KT 30/20 A301 RMK A01 T03000200  RH  055%=      5-min Rain = 0
KSE2 111616Z 18006KT 30/20 A301 RMK A01 T03030201  RH  055%=      5-min Rain = 0
KSE2 111617Z 15008KT 30/20 A301 RMK A01 T03040198  RH  053%=      5-min Rain = 0
KSE2 111618Z 15008KT 30/20 A301 RMK A01 T03030195  RH  052%=      5-min Rain = 0
KSE2 111619Z 16007KT 30/19 A301 RMK A01 T03010193  RH  053%=      5-min Rain = 0
KSE2 111620Z 14011KT 30/19 A301 RMK A01 T03000194  RH  053%=      5-min Rain = 0
KSE2 111621Z 14010KT 30/19 A301 RMK A01 T03020193  RH  052%=      5-min Rain = 0
KSE2 111622Z 16012KT 30/19 A301 RMK A01 T03010191  RH  052%=      5-min Rain = 0
KSE2 111623Z 15010KT 30/19 A301 RMK A01 T03010191  RH  052%=      5-min Rain = 0
KSE2 111624Z 18009KT 30/19 A301 RMK A01 T03010193  RH  052%=      5-min Rain = 0
KSE2 111625Z 19009KT 30/19 A301 RMK A01 T03030194  RH  052%=      5-min Rain = 0
KSE2 111626Z 21005KT 30/19 A301 RMK A01 T03020192  RH  052%=      5-min Rain = 0
KSE2 111627Z 19005KT 30/19 A301 RMK A01 T03020192  RH  052%=      5-min Rain = 0
KSE2 111628Z 15010KT 30/19 A301 RMK A01 T03040191  RH  051%=      5-min Rain = 0
KSE2 111629Z 16008KT 31/19 A301 RMK A01 T03050194  RH  052%=      5-min Rain = 0
KSE2 111630Z 17007KT 31/20 A301 RMK A01 T03050196  RH  052%=      5-min Rain = 0
KSE2 111631Z 18008KT 30/20 A301 RMK A01 T03030197  RH  053%=      5-min Rain = 0
KSE2 111632Z 19007KT 30/20 A301 RMK A01 T03030197  RH  053%=      5-min Rain = 0
KSE2 111633Z 21006KT 31/20 A301 RMK A01 T03050196  RH  052%=      5-min Rain = 0
KSE2 111634Z 18007KT 31/20 A301 RMK A01 T03050196  RH  052%=      5-min Rain = 0
KSE2 111635Z 16007KT 31/20 A301 RMK A01 T03080197  RH  052%=      5-min Rain = 0
KSE2 111636Z 15008KT 31/20 A301 RMK A01 T03100195  RH  051%=      5-min Rain = 0
KSE2 111637Z 15008KT 31/20 A301 RMK A01 T03110195  RH  050%=      5-min Rain = 0
KSE2 111638Z 14010KT 31/20 A301 RMK A01 T03110195  RH  050%=      5-min Rain = 0
KSE2 111639Z 14010KT 31/20 A301 RMK A01 T03100195  RH  050%=      5-min Rain = 0
KSE2 111640Z 14010KT 31/19 A301 RMK A01 T03080194  RH  051%=      5-min Rain = 0
KSE2 111641Z 14010KT 31/19 A301 RMK A01 T03090193  RH  050%=      5-min Rain = 0
KSE2 111642Z 14008KT 31/19 A301 RMK A01 T03080194  RH  051%=      5-min Rain = 0
KSE2 111643Z 12010KT 31/20 A3009 RMK A01 T03080195  RH  051%=      5-min Rain = 0
KSE2 111644Z 14009KT 31/19 A3009 RMK A01 T03080194  RH  051%=      5-min Rain = 0
KSE2 111645Z 14008KT 31/19 A3009 RMK A01 T03080194  RH  051%=      5-min Rain = 0
KSE2 111646Z 14009KT 31/19 A3009 RMK A01 T03080192  RH  050%=      5-min Rain = 0
KSE2 111647Z 16012KT 31/19 A3009 RMK A01 T03120191  RH  049%=      5-min Rain = 0
KSE2 111648Z 18011KT 31/19 A301 RMK A01 T03140190  RH  048%=      5-min Rain = 0
KSE2 111649Z 19007KT 31/19 A301 RMK A01 T03140188  RH  047%=      5-min Rain = 0
KSE2 111650Z 19008KT 31/19 A301 RMK A01 T03100188  RH  048%=      5-min Rain = 0
KSE2 111651Z 17007KT 31/19 A301 RMK A01 T03100191  RH  049%=      5-min Rain = 0
KSE2 111652Z 17006KT 32/19 A301 RMK A01 T03150194  RH  049%=      5-min Rain = 0
KSE2 111653Z 20006KT 32/20 A301 RMK A01 T03190195  RH  048%=      5-min Rain = 0
KSE2 111654Z 21006KT 32/20 A301 RMK A01 T03200195  RH  047%=      5-min Rain = 0
KSE2 111655Z 22007KT 32/19 A3009 RMK A01 T03200191  RH  046%=      5-min Rain = 0
KSE2 111656Z 19010G15KT 31/19 A3009 RMK A01 T03140190  RH  048%=      5-min Rain = 0
KSE2 111657Z 15012KT 31/19 A3009 RMK A01 T03130190  RH  048%=      5-min Rain = 0
KSE2 111658Z 16010KT 31/19 A3009 RMK A01 T03130189  RH  048%=      5-min Rain = 0
KSE2 111659Z 18009KT 31/19 A3009 RMK A01 T03130191  RH  048%=      5-min Rain = 0
KSE2 111700Z 16010KT 31/19 A3009 RMK A01 T03130192  RH  049%=      5-min Rain = 0
KSE2 111701Z 17008KT 32/19 A3009 RMK A01 T03160193  RH  048%=      5-min Rain = 0
KSE2 111702Z 17006KT 32/19 A3009 RMK A01 T03180193  RH  048%=      5-min Rain = 0
KSE2 111703Z 22005KT 32/19 A3009 RMK A01 T03200193  RH  047%=      5-min Rain = 0
KSE2 111704Z 21007KT 32/19 A3009 RMK A01 T03190193  RH  047%=      5-min Rain = 0
KSE2 111705Z 21008KT 32/19 A3009 RMK A01 T03200192  RH  047%=      5-min Rain = 0
KSE2 111706Z 18006KT 32/19 A3009 RMK A01 T03180193  RH  048%=      5-min Rain = 0
KSE2 111707Z 18007KT 32/19 A3009 RMK A01 T03210194  RH  047%=      5-min Rain = 0
KSE2 111708Z 18008KT 32/19 A3009 RMK A01 T03240194  RH  046%=      5-min Rain = 0
KSE2 111709Z 17010KT 32/19 A3009 RMK A01 T03240191  RH  045%=      5-min Rain = 0
KSE2 111710Z 15009KT 32/19 A3009 RMK A01 T03200190  RH  046%=      5-min Rain = 0
KSE2 111711Z 17008KT 32/19 A3009 RMK A01 T03190191  RH  047%=      5-min Rain = 0
KSE2 111712Z 18007KT 32/19 A3009 RMK A01 T03200191  RH  046%=      5-min Rain = 0
KSE2 111713Z 15009KT 32/19 A3009 RMK A01 T03170191  RH  047%=      5-min Rain = 0
KSE2 111714Z 19007KT 32/19 A3009 RMK A01 T03180191  RH  047%=      5-min Rain = 0
KSE2 111715Z 18009G15KT 32/19 A3009 RMK A01 T03220188  RH  045%=      5-min Rain = 0
KSE2 111716Z 18011KT 32/18 A3009 RMK A01 T03230184  RH  044%=      5-min Rain = 0
KSE2 111717Z 16009G14KT 32/18 A3009 RMK A01 T03240183  RH  043%=      5-min Rain = 0
KSE2 111718Z 15008KT 32/18 A3009 RMK A01 T03220181  RH  043%=      5-min Rain = 0
KSE2 111719Z 17007KT 32/18 A3009 RMK A01 T03180180  RH  044%=      5-min Rain = 0
KSE2 111720Z 20005KT 32/19 A3009 RMK A01 T03190185  RH  045%=      5-min Rain = 0
KSE2 111721Z 21006KT 32/19 A3009 RMK A01 T03210187  RH  045%=      5-min Rain = 0
KSE2 111722Z 20008G14KT 32/19 A3009 RMK A01 T03200189  RH  046%=      5-min Rain = 0
KSE2 111723Z 20010KT 32/19 A3009 RMK A01 T03210187  RH  045%=      5-min Rain = 0
KSE2 111724Z 18007KT 32/19 A3009 RMK A01 T03190187  RH  046%=      5-min Rain = 0
KSE2 111725Z 15005KT 32/19 A3008 RMK A01 T03200188  RH  046%=      5-min Rain = 0
KSE2 111726Z 15007KT 32/19 A3008 RMK A01 T03230187  RH  045%=      5-min Rain = 0
KSE2 111727Z 15012KT 32/18 A3008 RMK A01 T03240184  RH  043%=      5-min Rain = 0
KSE2 111728Z 16011KT 33/18 A3008 RMK A01 T03250183  RH  043%=      5-min Rain = 0
KSE2 111729Z 16009KT 32/18 A3008 RMK A01 T03230183  RH  043%=      5-min Rain = 0
KSE2 111730Z 15009KT 32/18 A3008 RMK A01 T03230184  RH  044%=      5-min Rain = 0
KSE2 111731Z 15014KT 32/19 A3008 RMK A01 T03230185  RH  044%=      5-min Rain = 0
KSE2 111732Z 16013G18KT 32/18 A3008 RMK A01 T03220183  RH  044%=      5-min Rain = 0
KSE2 111733Z 16009KT 32/18 A3008 RMK A01 T03210184  RH  044%=      5-min Rain = 0
KSE2 111734Z 18010KT 32/18 A3008 RMK A01 T03230183  RH  043%=      5-min Rain = 0
KSE2 111735Z 16011KT 32/18 A3008 RMK A01 T03240181  RH  043%=      5-min Rain = 0
KSE2 111736Z 15008KT 32/18 A3008 RMK A01 T03220180  RH  043%=      5-min Rain = 0
KSE2 111737Z 16013KT 32/18 A3008 RMK A01 T03220181  RH  043%=      5-min Rain = 0
KSE2 111738Z 17014KT 32/18 A3008 RMK A01 T03230175  RH  041%=      5-min Rain = 0
KSE2 111739Z 19011KT 32/18 A3008 RMK A01 T03240178  RH  042%=      5-min Rain = 0
KSE2 111740Z 19011KT 33/18 A3008 RMK A01 T03260176  RH  041%=      5-min Rain = 0
KSE2 111741Z 19010KT 33/17 A3008 RMK A01 T03260170  RH  039%=      5-min Rain = 0
KSE2 111742Z 20010KT 33/18 A3008 RMK A01 T03250175  RH  041%=      5-min Rain = 0
KSE2 111743Z 20008KT 32/18 A3008 RMK A01 T03240177  RH  042%=      5-min Rain = 0
KSE2 111744Z 17007KT 32/18 A3008 RMK A01 T03240179  RH  042%=      5-min Rain = 0
KSE2 111745Z 21009KT 33/18 A3008 RMK A01 T03250182  RH  043%=      5-min Rain = 0
KSE2 111746Z 21011KT 33/18 A3008 RMK A01 T03270184  RH  043%=      5-min Rain = 0
KSE2 111747Z 20010KT 33/19 A3008 RMK A01 T03300185  RH  042%=      5-min Rain = 0
KSE2 111748Z 19007G12KT 33/18 A3008 RMK A01 T03290181  RH  041%=      5-min Rain = 0
KSE2 111749Z 19011G17KT 33/18 A3008 RMK A01 T03310179  RH  040%=      5-min Rain = 0
KSE2 111750Z 18010KT 33/18 A3008 RMK A01 T03340183  RH  041%=      5-min Rain = 0
KSE2 111751Z 17006KT 33/19 A3008 RMK A01 T03320185  RH  042%=      5-min Rain = 0
KSE2 111752Z 16007KT 34/19 A3008 RMK A01 T03370187  RH  041%=      5-min Rain = 0
KSE2 111753Z 15007KT 34/19 A3007 RMK A01 T03370186  RH  041%=      5-min Rain = 0
KSE2 111754Z 18010KT 34/19 A3007 RMK A01 T03370186  RH  041%=      5-min Rain = 0
KSE2 111755Z 17010KT 34/18 A3007 RMK A01 T03360182  RH  040%=      5-min Rain = 0
KSE2 111756Z 15009KT 33/18 A3007 RMK A01 T03340184  RH  041%=      5-min Rain = 0
KSE2 111757Z 14010KT 33/18 A3007 RMK A01 T03290184  RH  042%=      5-min Rain = 0
KSE2 111758Z 16007KT 33/18 A3007 RMK A01 T03300181  RH  041%=      5-min Rain = 0
KSE2 111759Z 18006KT 33/18 A3007 RMK A01 T03300180  RH  041%=      5-min Rain = 0
KSE2 111800Z 20005KT 33/18 A3007 RMK A01 T03320179  RH  040%=      5-min Rain = 0
KSE2 111801Z 17009G14KT 34/18 A3007 RMK A01 T03350182  RH  040%=      5-min Rain = 0
KSE2 111802Z 18013KT 34/18 A3007 RMK A01 T03360182  RH  040%=      5-min Rain = 0
KSE2 111803Z 15012KT 33/18 A3007 RMK A01 T03340182  RH  040%=      5-min Rain = 0
KSE2 111804Z 15009KT 33/18 A3007 RMK A01 T03320182  RH  041%=      5-min Rain = 0
KSE2 111805Z 13010KT 33/18 A3007 RMK A01 T03310183  RH  041%=      5-min Rain = 0
KSE2 111806Z 11009KT 33/18 A3007 RMK A01 T03310184  RH  042%=      5-min Rain = 0
KSE2 111807Z 13007KT 33/18 A3006 RMK A01 T03300184  RH  042%=      5-min Rain = 0
KSE2 111808Z 14010KT 33/19 A3006 RMK A01 T03320185  RH  042%=      5-min Rain = 0
KSE2 111809Z 17013KT 34/18 A3006 RMK A01 T03360181  RH  040%=      5-min Rain = 0
KSE2 111810Z 17009KT 34/18 A3006 RMK A01 T03360180  RH  040%=      5-min Rain = 0
KSE2 111811Z 16008G15KT 34/18 A3006 RMK A01 T03360181  RH  040%=      5-min Rain = 0
KSE2 111812Z 16008G14KT 34/18 A3006 RMK A01 T03360180  RH  040%=      5-min Rain = 0
KSE2 111813Z 15008KT 34/18 A3006 RMK A01 T03350180  RH  040%=      5-min Rain = 0
KSE2 111814Z 13009KT 34/18 A3006 RMK A01 T03370179  RH  039%=      5-min Rain = 0
KSE2 111815Z 12009KT 34/18 A3006 RMK A01 T03390178  RH  039%=      5-min Rain = 0
KSE2 111816Z 14009KT 34/18 A3006 RMK A01 T03380179  RH  039%=      5-min Rain = 0
KSE2 111817Z 14011KT 34/18 A3006 RMK A01 T03400175  RH  038%=      5-min Rain = 0
KSE2 111818Z 14008KT 34/17 A3006 RMK A01 T03380174  RH  038%=      5-min Rain = 0
KSE2 111819Z 13009KT 34/17 A3006 RMK A01 T03410173  RH  037%=      5-min Rain = 0
KSE2 111820Z 15011KT 34/17 A3006 RMK A01 T03440172  RH  036%=      5-min Rain = 0
KSE2 111821Z 13009KT 34/17 A3006 RMK A01 T03430169  RH  035%=      5-min Rain = 0
KSE2 111822Z 14007KT 34/17 A3006 RMK A01 T03380169  RH  037%=      5-min Rain = 0
KSE2 111823Z 15008KT 34/17 A3006 RMK A01 T03370171  RH  037%=      5-min Rain = 0
KSE2 111824Z 17007KT 34/17 A3006 RMK A01 T03390172  RH  037%=      5-min Rain = 0
KSE2 111825Z 16008G13KT 34/17 A3006 RMK A01 T03430173  RH  036%=      5-min Rain = 0
KSE2 111826Z 16012KT 34/17 A3005 RMK A01 T03410170  RH  036%=      5-min Rain = 0
KSE2 111827Z 18008G13KT 34/17 A3005 RMK A01 T03380169  RH  036%=      5-min Rain = 0
KSE2 111828Z 17014KT 34/17 A3005 RMK A01 T03390168  RH  036%=      5-min Rain = 0
KSE2 111829Z 17013KT 34/16 A3006 RMK A01 T03410163  RH  034%=      5-min Rain = 0
KSE2 111830Z 18010KT 34/16 A3006 RMK A01 T03410164  RH  035%=      5-min Rain = 0
KSE2 111831Z 16008KT 34/16 A3005 RMK A01 T03390162  RH  035%=      5-min Rain = 0
KSE2 111832Z 18010KT 34/16 A3005 RMK A01 T03380161  RH  035%=      5-min Rain = 0
KSE2 111833Z 18008KT 34/16 A3005 RMK A01 T03400159  RH  034%=      5-min Rain = 0
KSE2 111834Z 15007KT 34/16 A3005 RMK A01 T03390158  RH  034%=      5-min Rain = 0
KSE2 111835Z 15008G14KT 34/16 A3005 RMK A01 T03400163  RH  035%=      5-min Rain = 0
KSE2 111836Z 15010KT 35/16 A3005 RMK A01 T03450162  RH  034%=      5-min Rain = 0
KSE2 111837Z 15009KT 34/17 A3005 RMK A01 T03430167  RH  035%=      5-min Rain = 0
KSE2 111838Z 15009KT 34/17 A3005 RMK A01 T03420170  RH  036%=      5-min Rain = 0
KSE2 111839Z 13011KT 34/16 A3005 RMK A01 T03420163  RH  034%=      5-min Rain = 0
KSE2 111840Z 13012KT 34/16 A3005 RMK A01 T03400163  RH  035%=      5-min Rain = 0
KSE2 111841Z 13014KT 34/16 A3005 RMK A01 T03400161  RH  034%=      5-min Rain = 0
KSE2 111842Z 15011KT 34/16 A3005 RMK A01 T03410160  RH  034%=      5-min Rain = 0
KSE2 111843Z 16010KT 34/16 A3005 RMK A01 T03410157  RH  033%=      5-min Rain = 0
KSE2 111844Z 18011KT 35/17 A3005 RMK A01 T03450165  RH  034%=      5-min Rain = 0
KSE2 111845Z 20012KT 35/17 A3005 RMK A01 T03470168  RH  035%=      5-min Rain = 0
KSE2 111846Z 18009KT 35/17 A3005 RMK A01 T03460165  RH  034%=      5-min Rain = 0
KSE2 111847Z 16011KT 35/17 A3005 RMK A01 T03480165  RH  034%=      5-min Rain = 0
KSE2 111848Z 18009KT 35/17 A3005 RMK A01 T03470172  RH  035%=      5-min Rain = 0
KSE2 111849Z 17007KT 35/17 A3005 RMK A01 T03460171  RH  036%=      5-min Rain = 0
KSE2 111850Z 18005KT 35/17 A3005 RMK A01 T03450173  RH  036%=      5-min Rain = 0
KSE2 111851Z 17007KT 35/17 A3005 RMK A01 T03460173  RH  036%=      5-min Rain = 0
KSE2 111852Z 17006KT 35/17 A3005 RMK A01 T03470172  RH  035%=      5-min Rain = 0
KSE2 111853Z 15005KT 35/17 A3005 RMK A01 T03470170  RH  035%=      5-min Rain = 0
KSE2 111854Z 14009KT 35/17 A3004 RMK A01 T03470165  RH  034%=      5-min Rain = 0
KSE2 111855Z 18009KT 35/16 A3004 RMK A01 T03490164  RH  033%=      5-min Rain = 0
KSE2 111856Z 15009G14KT 35/16 A3004 RMK A01 T03480164  RH  033%=      5-min Rain = 0
KSE2 111857Z 15012KT 35/16 A3004 RMK A01 T03480158  RH  032%=      5-min Rain = 0
KSE2 111858Z 14008KT 35/16 A3004 RMK A01 T03470157  RH  032%=      5-min Rain = 0
KSE2 111859Z 13010G15KT 35/16 A3004 RMK A01 T03490161  RH  033%=      5-min Rain = 0
KSE2 111900Z 13012KT 35/17 A3004 RMK A01 T03510165  RH  033%=      5-min Rain = 0
KSE2 111901Z 13011KT 35/17 A3004 RMK A01 T03500165  RH  033%=      5-min Rain = 0
KSE2 111902Z 13011KT 35/17 A3004 RMK A01 T03520168  RH  034%=      5-min Rain = 0
KSE2 111903Z 14012KT 35/17 A3004 RMK A01 T03500166  RH  034%=      5-min Rain = 0
KSE2 111904Z 17011KT 35/17 A3004 RMK A01 T03500166  RH  034%=      5-min Rain = 0
KSE2 111905Z 17007KT 35/17 A3004 RMK A01 T03490167  RH  034%=      5-min Rain = 0
KSE2 111906Z 15009KT 35/17 A3004 RMK A01 T03500165  RH  033%=      5-min Rain = 0
KSE2 111907Z 19011KT 35/16 A3004 RMK A01 T03520163  RH  033%=      5-min Rain = 0
KSE2 111908Z 18006G11KT 35/16 A3004 RMK A01 T03520162  RH  032%=      5-min Rain = 0
KSE2 111909Z 15007KT 36/16 A3004 RMK A01 T03550161  RH  032%=      5-min Rain = 0
KSE2 111910Z 14007KT 35/16 A3004 RMK A01 T03540160  RH  032%=      5-min Rain = 0
KSE2 111911Z 15007KT 35/16 A3004 RMK A01 T03540163  RH  032%=      5-min Rain = 0
KSE2 111912Z 15009KT 36/16 A3004 RMK A01 T03570164  RH  032%=      5-min Rain = 0
KSE2 111913Z 19010KT 35/16 A3003 RMK A01 T03540163  RH  032%=      5-min Rain = 0
KSE2 111914Z 17007KT 35/16 A3003 RMK A01 T03540163  RH  032%=      5-min Rain = 0
KSE2 111915Z 19006KT 36/16 A3003 RMK A01 T03550160  RH  031%=      5-min Rain = 0
KSE2 111916Z 17010G15KT 36/16 A3003 RMK A01 T03550162  RH  032%=      5-min Rain = 0
KSE2 111917Z 21010KT 36/16 A3003 RMK A01 T03570160  RH  031%=      5-min Rain = 0
KSE2 111918Z 14008KT 35/16 A3003 RMK A01 T03540162  RH  032%=      5-min Rain = 0
KSE2 111919Z 13013KT 36/16 A3003 RMK A01 T03550163  RH  032%=      5-min Rain = 0
KSE2 111920Z 11010KT 35/16 A3003 RMK A01 T03500160  RH  032%=      5-min Rain = 0
KSE2 111921Z 13010KT 35/16 A3003 RMK A01 T03480162  RH  033%=      5-min Rain = 0
KSE2 111922Z 13011KT 35/17 A3003 RMK A01 T03510167  RH  034%=      5-min Rain = 0
KSE2 111923Z 13010KT 36/17 A3003 RMK A01 T03550166  RH  033%=      5-min Rain = 0
KSE2 111924Z 13011KT 36/16 A3003 RMK A01 T03570162  RH  031%=      5-min Rain = 0
KSE2 111925Z 13010KT 36/16 A3003 RMK A01 T03550159  RH  031%=      5-min Rain = 0
KSE2 111926Z 19012KT 36/16 A3003 RMK A01 T03560157  RH  031%=      5-min Rain = 0
KSE2 111927Z 17012KT 35/15 A3003 RMK A01 T03530153  RH  030%=      5-min Rain = 0
KSE2 111928Z 13013KT 35/16 A3003 RMK A01 T03530157  RH  031%=      5-min Rain = 0
KSE2 111929Z 14010KT 35/16 A3003 RMK A01 T03540156  RH  031%=      5-min Rain = 0
KSE2 111930Z 15009KT 36/16 A3003 RMK A01 T03550156  RH  031%=      5-min Rain = 0
KSE2 111931Z 16007KT 35/16 A3003 RMK A01 T03540156  RH  031%=      5-min Rain = 0
KSE2 111932Z 18012KT 36/15 A3003 RMK A01 T03550147  RH  029%=      5-min Rain = 0
KSE2 111933Z 18009KT 36/15 A3003 RMK A01 T03570145  RH  028%=      5-min Rain = 0
KSE2 111934Z 16008KT 36/15 A3003 RMK A01 T03600146  RH  028%=      5-min Rain = 0
KSE2 111935Z 15003KT 36/14 A3003 RMK A01 T03570143  RH  028%=      5-min Rain = 0
KSE2 111936Z 19003KT 35/15 A3003 RMK A01 T03530145  RH  029%=      5-min Rain = 0
KSE2 111937Z 15009G15KT 36/15 A3003 RMK A01 T03550149  RH  029%=      5-min Rain = 0
KSE2 111938Z 16013KT 36/15 A3003 RMK A01 T03570148  RH  029%=      5-min Rain = 0
KSE2 111939Z 16008KT 36/15 A3003 RMK A01 T03550148  RH  029%=      5-min Rain = 0
KSE2 111940Z 14006KT 36/15 A3003 RMK A01 T03550149  RH  029%=      5-min Rain = 0
KSE2 111941Z 13006KT 36/15 A3003 RMK A01 T03580150  RH  029%=      5-min Rain = 0
KSE2 111942Z 14006KT 36/15 A3003 RMK A01 T03600150  RH  029%=      5-min Rain = 0
KSE2 111943Z 17009KT 36/15 A3003 RMK A01 T03620153  RH  029%=      5-min Rain = 0
KSE2 111944Z 18011G17KT 37/15 A3002 RMK A01 T03650153  RH  028%=      5-min Rain = 0
KSE2 111945Z 19011KT 36/15 A3003 RMK A01 T03620151  RH  028%=      5-min Rain = 0
KSE2 111946Z 17005KT 36/15 A3002 RMK A01 T03580148  RH  029%=      5-min Rain = 0
KSE2 111947Z 14008G14KT 36/15 A3002 RMK A01 T03550148  RH  029%=      5-min Rain = 0
KSE2 111948Z 17009G14KT 36/15 A3002 RMK A01 T03580151  RH  029%=      5-min Rain = 0
KSE2 111949Z 18009KT 36/15 A3002 RMK A01 T03640150  RH  028%=      5-min Rain = 0
KSE2 111950Z 18009KT 36/15 A3002 RMK A01 T03630148  RH  028%=      5-min Rain = 0
KSE2 111951Z 18010KT 36/15 A3002 RMK A01 T03630152  RH  029%=      5-min Rain = 0
KSE2 111952Z 16006KT 36/15 A3002 RMK A01 T03590153  RH  029%=      5-min Rain = 0
KSE2 111953Z 17003KT 36/15 A3002 RMK A01 T03550153  RH  030%=      5-min Rain = 0
KSE2 111954Z 14003KT 35/15 A3002 RMK A01 T03520150  RH  030%=      5-min Rain = 0
KSE2 111955Z 11008KT 35/15 A3002 RMK A01 T03510150  RH  030%=      5-min Rain = 0
KSE2 111956Z 12009KT 35/15 A3002 RMK A01 T03540152  RH  030%=      5-min Rain = 0
KSE2 111957Z 12007KT 36/15 A3002 RMK A01 T03560151  RH  029%=      5-min Rain = 0
KSE2 111958Z 11008KT 36/15 A3001 RMK A01 T03590150  RH  029%=      5-min Rain = 0
KSE2 111959Z 11006KT 36/15 A3001 RMK A01 T03620150  RH  028%=      5-min Rain = 0
KSE2 112000Z 12013KT 37/15 A3001 RMK A01 T03670150  RH  028%=      5-min Rain = 0
KSE2 112001Z 11012KT 36/15 A3001 RMK A01 T03630145  RH  027%=      5-min Rain = 0
KSE2 112002Z 13009G14KT 36/15 A3001 RMK A01 T03580146  RH  028%=      5-min Rain = 0
KSE2 112003Z 15008KT 36/15 A3001 RMK A01 T03600147  RH  028%=      5-min Rain = 0
KSE2 112004Z 16011KT 36/15 A3001 RMK A01 T03640149  RH  028%=      5-min Rain = 0
KSE2 112005Z 16010G15KT 37/15 A3001 RMK A01 T03660150  RH  028%=      5-min Rain = 0
KSE2 112006Z 16010KT 37/15 A3001 RMK A01 T03660146  RH  027%=      5-min Rain = 0
KSE2 112007Z 14007KT 36/14 A3001 RMK A01 T03610144  RH  027%=      5-min Rain = 0
KSE2 112008Z 13008KT 36/14 A3001 RMK A01 T03600144  RH  028%=      5-min Rain = 0
KSE2 112009Z 14006KT 36/14 A3001 RMK A01 T03590143  RH  027%=      5-min Rain = 0
KSE2 112010Z 15010G15KT 36/15 A3001 RMK A01 T03590145  RH  028%=      5-min Rain = 0
KSE2 112011Z 14015KT 36/14 A3001 RMK A01 T03590144  RH  028%=      5-min Rain = 0
KSE2 112012Z 14014KT 36/15 A3001 RMK A01 T03600145  RH  028%=      5-min Rain = 0
KSE2 112013Z 14011KT 36/15 A3001 RMK A01 T03600145  RH  028%=      5-min Rain = 0
KSE2 112014Z 14009KT 36/14 A3001 RMK A01 T03570143  RH  028%=      5-min Rain = 0
KSE2 112015Z 14009G15KT 36/15 A3001 RMK A01 T03560145  RH  028%=      5-min Rain = 0
KSE2 112016Z 17010KT 36/15 A3001 RMK A01 T03610145  RH  028%=      5-min Rain = 0
KSE2 112017Z 16007KT 36/14 A3001 RMK A01 T03630144  RH  027%=      5-min Rain = 0
KSE2 112018Z 16008KT 36/15 A3001 RMK A01 T03620150  RH  028%=      5-min Rain = 0
KSE2 112019Z 15008KT 37/15 A3001 RMK A01 T03660153  RH  028%=      5-min Rain = 0
KSE2 112020Z 16009KT 37/15 A3001 RMK A01 T03660152  RH  028%=      5-min Rain = 0
KSE2 112021Z 16006KT 36/15 A30 RMK A01 T03630150  RH  028%=      5-min Rain = 0
KSE2 112022Z 18006KT 36/15 A30 RMK A01 T03620150  RH  028%=      5-min Rain = 0
KSE2 112023Z 17011KT 36/15 A30 RMK A01 T03640147  RH  027%=      5-min Rain = 0
KSE2 112024Z 15011KT 36/14 A30 RMK A01 T03630142  RH  027%=      5-min Rain = 0
KSE2 112025Z 13012KT 36/14 A30 RMK A01 T03610144  RH  027%=      5-min Rain = 0
KSE2 112026Z 12011KT 36/14 A30 RMK A01 T03610142  RH  027%=      5-min Rain = 0
KSE2 112027Z 12008KT 36/14 A30 RMK A01 T03610140  RH  027%=      5-min Rain = 0
KSE2 112028Z 14008G13KT 36/14 A30 RMK A01 T03610140  RH  027%=      5-min Rain = 0
KSE2 112029Z 14007KT 36/14 A30 RMK A01 T03610137  RH  026%=      5-min Rain = 0
KSE2 112030Z 13010G15KT 36/14 A30 RMK A01 T03600138  RH  027%=      5-min Rain = 0
KSE2 112031Z 15009KT 36/14 A30 RMK A01 T03610139  RH  027%=      5-min Rain = 0
KSE2 112032Z 16008G14KT 36/14 A30 RMK A01 T03610140  RH  027%=      5-min Rain = 0
KSE2 112033Z 16012KT 36/14 A30 RMK A01 T03640138  RH  026%=      5-min Rain = 0
KSE2 112034Z 15008KT 36/14 A30 RMK A01 T03620135  RH  026%=      5-min Rain = 0
KSE2 112035Z 16009KT 36/14 A30 RMK A01 T03610138  RH  026%=      5-min Rain = 0
KSE2 112036Z 14009KT 36/14 A30 RMK A01 T03600143  RH  027%=      5-min Rain = 0
KSE2 112037Z 15011KT 36/14 A30 RMK A01 T03640140  RH  026%=      5-min Rain = 0
KSE2 112038Z 14008KT 36/13 A30 RMK A01 T03640130  RH  025%=      5-min Rain = 0
KSE2 112039Z 15003KT 36/13 A30 RMK A01 T03620126  RH  024%=      5-min Rain = 0
KSE2 112040Z 14005KT 36/13 A30 RMK A01 T03600128  RH  025%=      5-min Rain = 0
KSE2 112041Z 12009KT 36/14 A30 RMK A01 T03620135  RH  026%=      5-min Rain = 0
KSE2 112042Z 11008KT 37/13 A30 RMK A01 T03650133  RH  025%=      5-min Rain = 0
KSE2 112043Z 13005KT 37/13 A30 RMK A01 T03670134  RH  025%=      5-min Rain = 0
KSE2 112044Z 14008KT 37/14 A2999 RMK A01 T03690144  RH  026%=      5-min Rain = 0
KSE2 112045Z 15010KT 37/15 A30 RMK A01 T03700149  RH  027%=      5-min Rain = 0
KSE2 112046Z 15007KT 37/15 A30 RMK A01 T03650147  RH  027%=      5-min Rain = 0
KSE2 112047Z 18008KT 36/15 A30 RMK A01 T03620147  RH  028%=      5-min Rain = 0
KSE2 112048Z 16006KT 36/15 A30 RMK A01 T03630147  RH  028%=      5-min Rain = 0
KSE2 112049Z 12008KT 36/14 A2999 RMK A01 T03630144  RH  027%=      5-min Rain = 0
KSE2 112050Z 12011KT 37/14 A2999 RMK A01 T03670139  RH  026%=      5-min Rain = 0
KSE2 112051Z 12010KT 37/14 A2999 RMK A01 T03660138  RH  026%=      5-min Rain = 0
KSE2 112052Z 12011KT 37/14 A2999 RMK A01 T03660140  RH  026%=      5-min Rain = 0
KSE2 112053Z 12009KT 37/14 A2999 RMK A01 T03660141  RH  026%=      5-min Rain = 0
KSE2 112054Z 11008KT 37/14 A2999 RMK A01 T03660141  RH  026%=      5-min Rain = 0
KSE2 112055Z 13013KT 37/14 A2999 RMK A01 T03680142  RH  026%=      5-min Rain = 0
KSE2 112056Z 13010KT 37/14 A2999 RMK A01 T03650141  RH  026%=      5-min Rain = 0
KSE2 112057Z 12011KT 36/14 A2999 RMK A01 T03640142  RH  027%=      5-min Rain = 0
KSE2 112058Z 12011KT 36/15 A2999 RMK A01 T03640145  RH  027%=      5-min Rain = 0
KSE2 112059Z 12011KT 37/15 A2999 RMK A01 T03650146  RH  027%=      5-min Rain = 0
KSE2 112100Z 13009KT 37/15 A2999 RMK A01 T03660151  RH  028%=      5-min Rain = 0
KSE2 112101Z 11010KT 36/15 A2999 RMK A01 T03640150  RH  028%=      5-min Rain = 0
KSE2 112102Z 12013KT 37/15 A2999 RMK A01 T03660148  RH  027%=      5-min Rain = 0
KSE2 112103Z 11013KT 37/15 A2999 RMK A01 T03650148  RH  027%=      5-min Rain = 0
KSE2 112104Z 12010KT 36/15 A2999 RMK A01 T03630148  RH  028%=      5-min Rain = 0
KSE2 112105Z 12011KT 36/15 A2999 RMK A01 T03640146  RH  027%=      5-min Rain = 0
KSE2 112106Z 13008KT 36/14 A2999 RMK A01 T03620143  RH  027%=      5-min Rain = 0
KSE2 112107Z 11008KT 36/14 A2999 RMK A01 T03590143  RH  028%=      5-min Rain = 0
KSE2 112108Z 12007KT 36/14 A2999 RMK A01 T03580143  RH  028%=      5-min Rain = 0
KSE2 112109Z 11007G15KT 36/15 A2999 RMK A01 T03620146  RH  028%=      5-min Rain = 0
KSE2 112110Z 13011G19KT 37/14 A2999 RMK A01 T03670141  RH  026%=      5-min Rain = 0
KSE2 112111Z 15013KT 37/14 A2999 RMK A01 T03660139  RH  026%=      5-min Rain = 0
KSE2 112112Z 12010KT 37/14 A2999 RMK A01 T03650139  RH  026%=      5-min Rain = 0
KSE2 112113Z 14009KT 37/14 A2999 RMK A01 T03670141  RH  026%=      5-min Rain = 0
KSE2 112114Z 17008KT 37/14 A2999 RMK A01 T03690141  RH  026%=      5-min Rain = 0
KSE2 112115Z 16006KT 37/14 A2999 RMK A01 T03690140  RH  026%=      5-min Rain = 0
KSE2 112116Z 17005KT 37/14 A2999 RMK A01 T03670140  RH  026%=      5-min Rain = 0
KSE2 112117Z 21006G11KT 36/14 A2998 RMK A01 T03640139  RH  026%=      5-min Rain = 0
KSE2 112118Z 18008KT 36/14 A2998 RMK A01 T03630140  RH  026%=      5-min Rain = 0
KSE2 112119Z 21007KT 36/14 A2998 RMK A01 T03640141  RH  026%=      5-min Rain = 0
KSE2 112120Z 21007KT 37/14 A2998 RMK A01 T03670141  RH  026%=      5-min Rain = 0
KSE2 112121Z 20004KT 37/14 A2998 RMK A01 T03670139  RH  026%=      5-min Rain = 0
KSE2 112122Z 17008KT 37/14 A2998 RMK A01 T03670139  RH  026%=      5-min Rain = 0
KSE2 112123Z 19007KT 37/14 A2998 RMK A01 T03680137  RH  025%=      5-min Rain = 0
KSE2 112124Z 17007KT 37/14 A2998 RMK A01 T03690139  RH  025%=      5-min Rain = 0
KSE2 112125Z 13011KT 37/14 A2998 RMK A01 T03700144  RH  026%=      5-min Rain = 0
KSE2 112126Z 14011KT 37/15 A2998 RMK A01 T03690147  RH  027%=      5-min Rain = 0
KSE2 112127Z 13008KT 37/15 A2998 RMK A01 T03690147  RH  027%=      5-min Rain = 0
KSE2 112128Z 13009KT 37/14 A2998 RMK A01 T03690141  RH  026%=      5-min Rain = 0
KSE2 112129Z 16008KT 37/14 A2998 RMK A01 T03690142  RH  026%=      5-min Rain = 0
KSE2 112130Z 20008KT 37/14 A2998 RMK A01 T03720141  RH  025%=      5-min Rain = 0
KSE2 112131Z 18008KT 37/14 A2998 RMK A01 T03720143  RH  026%=      5-min Rain = 0
KSE2 112132Z 15009KT 37/15 A2998 RMK A01 T03720145  RH  026%=      5-min Rain = 0
KSE2 112133Z 15008KT 37/15 A2998 RMK A01 T03680145  RH  027%=      5-min Rain = 0
KSE2 112134Z 17007KT 37/15 A2998 RMK A01 T03650147  RH  027%=      5-min Rain = 0
KSE2 112135Z 17007KT 37/15 A2998 RMK A01 T03670148  RH  027%=      5-min Rain = 0
KSE2 112136Z 15009KT 37/15 A2998 RMK A01 T03670146  RH  027%=      5-min Rain = 0
KSE2 112137Z 17009G15KT 37/15 A2998 RMK A01 T03650145  RH  027%=      5-min Rain = 0
KSE2 112138Z 19010KT 37/15 A2998 RMK A01 T03650148  RH  028%=      5-min Rain = 0
KSE2 112139Z 16009G14KT 37/15 A2998 RMK A01 T03680150  RH  027%=      5-min Rain = 0
KSE2 112140Z 16007KT 37/15 A2998 RMK A01 T03680148  RH  027%=      5-min Rain = 0
KSE2 112141Z 15010KT 37/15 A2998 RMK A01 T03670147  RH  027%=      5-min Rain = 0
KSE2 112142Z 18007KT 37/15 A2998 RMK A01 T03660147  RH  027%=      5-min Rain = 0
KSE2 112143Z 14011KT 37/15 A2998 RMK A01 T03660147  RH  027%=      5-min Rain = 0
KSE2 112144Z 14009KT 37/15 A2998 RMK A01 T03660147  RH  027%=      5-min Rain = 0
KSE2 112145Z 14006KT 36/15 A2998 RMK A01 T03640146  RH  027%=      5-min Rain = 0
KSE2 112146Z 18006G11KT 37/15 A2998 RMK A01 T03670150  RH  028%=      5-min Rain = 0
KSE2 112147Z 15009KT 37/15 A2998 RMK A01 T03730151  RH  027%=      5-min Rain = 0
KSE2 112148Z 17007KT 37/15 A2998 RMK A01 T03740151  RH  027%=      5-min Rain = 0
KSE2 112149Z 15008KT 38/15 A2998 RMK A01 T03770150  RH  026%=      5-min Rain = 0
KSE2 112150Z 16007KT 37/15 A2998 RMK A01 T03720147  RH  026%=      5-min Rain = 0
KSE2 112151Z 18005KT 37/15 A2998 RMK A01 T03700148  RH  027%=      5-min Rain = 0
KSE2 112152Z 18011KT 37/15 A2998 RMK A01 T03700149  RH  027%=      5-min Rain = 0
KSE2 112153Z 15008KT 37/15 A2998 RMK A01 T03680147  RH  027%=      5-min Rain = 0
KSE2 112154Z 17007KT 36/15 A2998 RMK A01 T03640146  RH  027%=      5-min Rain = 0
KSE2 112155Z 17007KT 37/15 A2998 RMK A01 T03650147  RH  027%=      5-min Rain = 0
KSE2 112156Z 20008G13KT 37/15 A2998 RMK A01 T03650148  RH  027%=      5-min Rain = 0
KSE2 112157Z 19010KT 37/15 A2998 RMK A01 T03670149  RH  027%=      5-min Rain = 0
KSE2 112158Z 17012G18KT 37/15 A2998 RMK A01 T03680150  RH  027%=      5-min Rain = 0
KSE2 112159Z 16013KT 37/15 A2998 RMK A01 T03680148  RH  027%=      5-min Rain = 0
KSE2 112200Z 18010KT 37/15 A2998 RMK A01 T03660148  RH  028%=      5-min Rain = 0
KSE2 112201Z 17007G12KT 37/15 A2998 RMK A01 T03660149  RH  028%=      5-min Rain = 0
KSE2 112202Z 16012KT 37/15 A2998 RMK A01 T03670150  RH  028%=      5-min Rain = 0
KSE2 112203Z 18011KT 37/15 A2998 RMK A01 T03660149  RH  028%=      5-min Rain = 0
KSE2 112204Z 19009KT 37/15 A2998 RMK A01 T03660150  RH  028%=      5-min Rain = 0
KSE2 112205Z 15012KT 37/15 A2998 RMK A01 T03680149  RH  027%=      5-min Rain = 0
KSE2 112206Z 15010KT 37/15 A2998 RMK A01 T03660149  RH  028%=      5-min Rain = 0
KSE2 112207Z 15009KT 37/15 A2998 RMK A01 T03660148  RH  027%=      5-min Rain = 0
KSE2 112208Z 16011KT 37/15 A2998 RMK A01 T03650147  RH  027%=      5-min Rain = 0
KSE2 112209Z 17006KT 37/15 A2998 RMK A01 T03650146  RH  027%=      5-min Rain = 0
KSE2 112210Z 15009G15KT 37/15 A2998 RMK A01 T03670147  RH  027%=      5-min Rain = 0
KSE2 112211Z 13008KT 37/15 A2998 RMK A01 T03700150  RH  027%=      5-min Rain = 0
KSE2 112212Z 13009G14KT 37/15 A2998 RMK A01 T03700148  RH  027%=      5-min Rain = 0
KSE2 112213Z 12011KT 37/15 A2998 RMK A01 T03690147  RH  027%=      5-min Rain = 0
KSE2 112214Z 12011KT 37/14 A2998 RMK A01 T03660144  RH  027%=      5-min Rain = 0
KSE2 112215Z 12009KT 37/14 A2998 RMK A01 T03650144  RH  027%=      5-min Rain = 0
KSE2 112216Z 11007KT 37/14 A2997 RMK A01 T03660142  RH  026%=      5-min Rain = 0
KSE2 112217Z 12006KT 36/14 A2997 RMK A01 T03640142  RH  027%=      5-min Rain = 0
KSE2 112218Z 13006KT 37/14 A2997 RMK A01 T03650142  RH  027%=      5-min Rain = 0
KSE2 112219Z 13008KT 37/14 A2997 RMK A01 T03660143  RH  027%=      5-min Rain = 0
KSE2 112220Z 14011KT 37/15 A2997 RMK A01 T03660147  RH  027%=      5-min Rain = 0
KSE2 112221Z 15011KT 37/15 A2997 RMK A01 T03660152  RH  028%=      5-min Rain = 0
KSE2 112222Z 14007KT 36/15 A2997 RMK A01 T03640152  RH  028%=      5-min Rain = 0
KSE2 112223Z 15006G11KT 36/15 A2997 RMK A01 T03620153  RH  029%=      5-min Rain = 0
KSE2 112224Z 15012KT 36/15 A2997 RMK A01 T03640152  RH  028%=      5-min Rain = 0
KSE2 112225Z 15013KT 37/15 A2997 RMK A01 T03650150  RH  028%=      5-min Rain = 0
KSE2 112226Z 14015KT 37/15 A2997 RMK A01 T03660148  RH  027%=      5-min Rain = 0
KSE2 112227Z 14013G18KT 37/15 A2997 RMK A01 T03650147  RH  027%=      5-min Rain = 0
KSE2 112228Z 14010KT 36/15 A2997 RMK A01 T03640147  RH  027%=      5-min Rain = 0
KSE2 112229Z 13010KT 36/15 A2997 RMK A01 T03640146  RH  027%=      5-min Rain = 0
KSE2 112230Z 13006KT 36/15 A2997 RMK A01 T03620145  RH  027%=      5-min Rain = 0
KSE2 112231Z 11007KT 36/15 A2997 RMK A01 T03630145  RH  027%=      5-min Rain = 0
KSE2 112232Z 11009KT 36/15 A2997 RMK A01 T03630146  RH  027%=      5-min Rain = 0
KSE2 112233Z 14007KT 36/15 A2997 RMK A01 T03640147  RH  027%=      5-min Rain = 0
KSE2 112234Z 16008KT 36/15 A2997 RMK A01 T03640149  RH  028%=      5-min Rain = 0
KSE2 112235Z 17005KT 37/15 A2997 RMK A01 T03650153  RH  028%=      5-min Rain = 0
KSE2 112236Z 18007KT 37/16 A2997 RMK A01 T03660156  RH  029%=      5-min Rain = 0
KSE2 112237Z 16005KT 37/16 A2997 RMK A01 T03670156  RH  029%=      5-min Rain = 0
KSE2 112238Z 16009KT 37/16 A2997 RMK A01 T03690158  RH  029%=      5-min Rain = 0
KSE2 112239Z 18008KT 37/16 A2997 RMK A01 T03710159  RH  029%=      5-min Rain = 0
KSE2 112240Z 18010KT 37/16 A2997 RMK A01 T03720158  RH  028%=      5-min Rain = 0
KSE2 112241Z 18008KT 37/16 A2997 RMK A01 T03690158  RH  029%=      5-min Rain = 0
KSE2 112242Z 18010KT 37/16 A2997 RMK A01 T03690158  RH  029%=      5-min Rain = 0
KSE2 112243Z 15008KT 37/16 A2997 RMK A01 T03700159  RH  029%=      5-min Rain = 0
KSE2 112244Z 14011KT 37/16 A2997 RMK A01 T03710158  RH  028%=      5-min Rain = 0
KSE2 112245Z 16008KT 37/16 A2997 RMK A01 T03680157  RH  029%=      5-min Rain = 0
KSE2 112246Z 16010KT 37/16 A2997 RMK A01 T03680156  RH  029%=      5-min Rain = 0
KSE2 112247Z 17009KT 36/15 A2997 RMK A01 T03640154  RH  029%=      5-min Rain = 0
KSE2 112248Z 19007KT 36/15 A2997 RMK A01 T03620152  RH  029%=      5-min Rain = 0
KSE2 112249Z 17003KT 36/15 A2997 RMK A01 T03600154  RH  029%=      5-min Rain = 0
KSE2 112250Z 17003KT 36/16 A2997 RMK A01 T03610155  RH  029%=      5-min Rain = 0
KSE2 112251Z 15005KT 36/16 A2997 RMK A01 T03640155  RH  029%=      5-min Rain = 0
KSE2 112252Z 15005KT 37/16 A2997 RMK A01 T03650155  RH  029%=      5-min Rain = 0
KSE2 112253Z 14010G16KT 37/16 A2997 RMK A01 T03650155  RH  029%=      5-min Rain = 0
KSE2 112254Z 14013KT 37/15 A2997 RMK A01 T03660154  RH  028%=      5-min Rain = 0
KSE2 112255Z 13010KT 36/15 A2997 RMK A01 T03640153  RH  029%=      5-min Rain = 0
KSE2 112256Z 13010KT 36/15 A2997 RMK A01 T03640153  RH  029%=      5-min Rain = 0
KSE2 112257Z 13008KT 36/15 A2997 RMK A01 T03630152  RH  029%=      5-min Rain = 0
KSE2 112258Z 15010KT 36/15 A2997 RMK A01 T03630153  RH  029%=      5-min Rain = 0
KSE2 112259Z 14010KT 36/15 A2997 RMK A01 T03630151  RH  028%=      5-min Rain = 0
KSE2 112300Z 13011KT 36/15 A2997 RMK A01 T03620151  RH  028%=      5-min Rain = 0
KSE2 112301Z 11011KT 36/15 A2996 RMK A01 T03630152  RH  029%=      5-min Rain = 0
KSE2 112302Z 12009KT 36/15 A2996 RMK A01 T03640153  RH  028%=      5-min Rain = 0
KSE2 112303Z 12008G13KT 36/15 A2996 RMK A01 T03640152  RH  028%=      5-min Rain = 0
KSE2 112304Z 12010KT 36/15 A2996 RMK A01 T03640152  RH  028%=      5-min Rain = 0
KSE2 112305Z 14009G14KT 36/15 A2996 RMK A01 T03620153  RH  029%=      5-min Rain = 0
KSE2 112306Z 16011KT 36/15 A2996 RMK A01 T03630154  RH  029%=      5-min Rain = 0
KSE2 112307Z 15008KT 36/15 A2996 RMK A01 T03630154  RH  029%=      5-min Rain = 0
KSE2 112308Z 15010KT 36/16 A2996 RMK A01 T03630155  RH  029%=      5-min Rain = 0
KSE2 112309Z 16010KT 36/15 A2997 RMK A01 T03640153  RH  028%=      5-min Rain = 0
KSE2 112310Z 15010KT 36/15 A2997 RMK A01 T03630153  RH  029%=      5-min Rain = 0
KSE2 112311Z 15009KT 36/15 A2997 RMK A01 T03620154  RH  029%=      5-min Rain = 0
KSE2 112312Z 16005KT 36/15 A2996 RMK A01 T03600153  RH  029%=      5-min Rain = 0
KSE2 112313Z 16008KT 36/15 A2996 RMK A01 T03590154  RH  030%=      5-min Rain = 0
KSE2 112314Z 14012G17KT 36/16 A2996 RMK A01 T03600155  RH  030%=      5-min Rain = 0
KSE2 112315Z 13013KT 36/15 A2996 RMK A01 T03600153  RH  029%=      5-min Rain = 0
KSE2 112316Z 14011KT 36/15 A2996 RMK A01 T03600153  RH  029%=      5-min Rain = 0
KSE2 112317Z 12010KT 36/15 A2996 RMK A01 T03590154  RH  029%=      5-min Rain = 0
KSE2 112318Z 12010KT 36/15 A2996 RMK A01 T03600153  RH  029%=      5-min Rain = 0
KSE2 112319Z 14007KT 36/15 A2996 RMK A01 T03590152  RH  029%=      5-min Rain = 0
KSE2 112320Z 17008KT 36/15 A2996 RMK A01 T03600154  RH  029%=      5-min Rain = 0
KSE2 112321Z 18008KT 36/16 A2996 RMK A01 T03610156  RH  029%=      5-min Rain = 0
KSE2 112322Z 16010KT 36/15 A2996 RMK A01 T03620154  RH  029%=      5-min Rain = 0
KSE2 112323Z 16010KT 36/15 A2996 RMK A01 T03620150  RH  028%=      5-min Rain = 0
KSE2 112324Z 17008KT 36/15 A2996 RMK A01 T03600149  RH  029%=      5-min Rain = 0
KSE2 112325Z 17011KT 36/15 A2996 RMK A01 T03600151  RH  029%=      5-min Rain = 0
KSE2 112326Z 17009KT 36/15 A2996 RMK A01 T03600149  RH  029%=      5-min Rain = 0
KSE2 112327Z 15010KT 36/15 A2996 RMK A01 T03600153  RH  029%=      5-min Rain = 0
KSE2 112328Z 15007KT 36/16 A2996 RMK A01 T03600156  RH  030%=      5-min Rain = 0
KSE2 112329Z 14008KT 36/16 A2996 RMK A01 T03590157  RH  030%=      5-min Rain = 0
KSE2 112330Z 16009KT 36/16 A2996 RMK A01 T03600158  RH  030%=      5-min Rain = 0
KSE2 112331Z 15010KT 36/16 A2996 RMK A01 T03610158  RH  030%=      5-min Rain = 0
KSE2 112332Z 17011KT 36/16 A2996 RMK A01 T03610157  RH  030%=      5-min Rain = 0
KSE2 112333Z 18011KT 36/16 A2996 RMK A01 T03600157  RH  030%=      5-min Rain = 0
KSE2 112334Z 18010KT 36/16 A2996 RMK A01 T03590157  RH  030%=      5-min Rain = 0
KSE2 112335Z 17007KT 36/16 A2996 RMK A01 T03590156  RH  030%=      5-min Rain = 0
KSE2 112336Z 16006KT 36/16 A2996 RMK A01 T03590157  RH  030%=      5-min Rain = 0
KSE2 112337Z 16007KT 36/16 A2996 RMK A01 T03600157  RH  030%=      5-min Rain = 0
KSE2 112338Z 14008KT 36/16 A2996 RMK A01 T03610157  RH  030%=      5-min Rain = 0
KSE2 112339Z 13008KT 36/16 A2996 RMK A01 T03600158  RH  030%=      5-min Rain = 0
KSE2 112340Z 14010KT 36/16 A2996 RMK A01 T03610158  RH  030%=      5-min Rain = 0
KSE2 112341Z 16008KT 36/16 A2996 RMK A01 T03610157  RH  030%=      5-min Rain = 0
KSE2 112342Z 17007KT 36/16 A2996 RMK A01 T03610156  RH  030%=      5-min Rain = 0
KSE2 112343Z 18008KT 36/16 A2996 RMK A01 T03610156  RH  030%=      5-min Rain = 0
KSE2 112344Z 18008KT 36/16 A2996 RMK A01 T03610157  RH  030%=      5-min Rain = 0
KSE2 112345Z 18009KT 36/16 A2996 RMK A01 T03600156  RH  030%=      5-min Rain = 0
KSE2 112346Z 18009KT 36/16 A2996 RMK A01 T03590158  RH  030%=      5-min Rain = 0
KSE2 112347Z 18009KT 36/16 A2996 RMK A01 T03590161  RH  031%=      5-min Rain = 0
KSE2 112348Z 17009KT 36/16 A2996 RMK A01 T03580162  RH  031%=      5-min Rain = 0
KSE2 112349Z 18008KT 36/16 A2996 RMK A01 T03580162  RH  031%=      5-min Rain = 0
KSE2 112350Z 18011G16KT 36/16 A2996 RMK A01 T03570162  RH  031%=      5-min Rain = 0
KSE2 112351Z 15015KT 36/16 A2996 RMK A01 T03570161  RH  031%=      5-min Rain = 0
KSE2 112352Z 13013KT 36/16 A2996 RMK A01 T03560160  RH  031%=      5-min Rain = 0
KSE2 112353Z 13013KT 36/16 A2996 RMK A01 T03550161  RH  032%=      5-min Rain = 0
KSE2 112354Z 13012KT 36/16 A2996 RMK A01 T03550161  RH  032%=      5-min Rain = 0
KSE2 112355Z 14012KT 36/16 A2996 RMK A01 T03550160  RH  031%=      5-min Rain = 0
KSE2 112356Z 14009KT 35/16 A2996 RMK A01 T03540159  RH  031%=      5-min Rain = 0
KSE2 112357Z 13007KT 35/16 A2996 RMK A01 T03540159  RH  031%=      5-min Rain = 0
KSE2 112358Z 13011KT 36/16 A2996 RMK A01 T03550161  RH  032%=      5-min Rain = 0
KSE2 112359Z 14011KT 36/16 A2996 RMK A01 T03550164  RH  032%=      5-min Rain = 0
KSE2 120000Z 15012KT 35/16 A2996 RMK A01 T03540162  RH  032%=      5-min Rain = 0
KSE2 120001Z 17009KT 35/16 A2996 RMK A01 T03540162  RH  032%=      5-min Rain = 0
KSE2 120002Z 18006KT 35/16 A2996 RMK A01 T03540163  RH  032%=      5-min Rain = 0
KSE2 120003Z 16009G15KT 35/16 A2996 RMK A01 T03540164  RH  032%=      5-min Rain = 0
KSE2 120004Z 15009KT 35/16 A2996 RMK A01 T03540164  RH  032%=      5-min Rain = 0
KSE2 120005Z 15010KT 36/17 A2996 RMK A01 T03550165  RH  032%=      5-min Rain = 0
KSE2 120006Z 14010KT 35/17 A2996 RMK A01 T03540165  RH  033%=      5-min Rain = 0
KSE2 120007Z 14008KT 35/17 A2996 RMK A01 T03540167  RH  033%=      5-min Rain = 0
KSE2 120008Z 14010KT 35/17 A2996 RMK A01 T03540167  RH  033%=      5-min Rain = 0
KSE2 120009Z 16007KT 35/17 A2996 RMK A01 T03540167  RH  033%=      5-min Rain = 0
KSE2 120010Z 18008KT 35/16 A2996 RMK A01 T03540164  RH  032%=      5-min Rain = 0
KSE2 120011Z 16008KT 35/16 A2996 RMK A01 T03540161  RH  032%=      5-min Rain = 0
KSE2 120012Z 17010KT 35/16 A2996 RMK A01 T03540161  RH  032%=      5-min Rain = 0
KSE2 120013Z 15009KT 35/16 A2995 RMK A01 T03530161  RH  032%=      5-min Rain = 0
KSE2 120014Z 16009KT 35/16 A2995 RMK A01 T03520162  RH  032%=      5-min Rain = 0
KSE2 120015Z 16012KT 35/16 A2995 RMK A01 T03520163  RH  032%=      5-min Rain = 0
KSE2 120016Z 15010KT 35/16 A2995 RMK A01 T03510164  RH  033%=      5-min Rain = 0
KSE2 120017Z 14010KT 35/16 A2996 RMK A01 T03500164  RH  033%=      5-min Rain = 0
KSE2 120018Z 12010KT 35/17 A2995 RMK A01 T03500165  RH  033%=      5-min Rain = 0
KSE2 120019Z 13011KT 35/17 A2995 RMK A01 T03500165  RH  033%=      5-min Rain = 0
KSE2 120020Z 14009KT 35/16 A2995 RMK A01 T03500164  RH  033%=      5-min Rain = 0
KSE2 120021Z 15010KT 35/16 A2995 RMK A01 T03490164  RH  033%=      5-min Rain = 0
KSE2 120022Z 15013G18KT 35/16 A2995 RMK A01 T03490163  RH  033%=      5-min Rain = 0
KSE2 120023Z 14015KT 35/16 A2995 RMK A01 T03490162  RH  033%=      5-min Rain = 0
KSE2 120024Z 13012KT 35/16 A2996 RMK A01 T03470161  RH  033%=      5-min Rain = 0
KSE2 120025Z 14011KT 35/16 A2996 RMK A01 T03470161  RH  033%=      5-min Rain = 0
KSE2 120026Z 15009G15KT 35/16 A2996 RMK A01 T03470161  RH  033%=      5-min Rain = 0
KSE2 120027Z 16012KT 35/16 A2996 RMK A01 T03470161  RH  033%=      5-min Rain = 0
KSE2 120028Z 14012KT 35/16 A2996 RMK A01 T03470161  RH  033%=      5-min Rain = 0
KSE2 120029Z 15011KT 35/16 A2996 RMK A01 T03470161  RH  033%=      5-min Rain = 0
KSE2 120030Z 15008KT 35/16 A2996 RMK A01 T03460161  RH  033%=      5-min Rain = 0
KSE2 120031Z 15008KT 35/16 A2996 RMK A01 T03460162  RH  033%=      5-min Rain = 0
KSE2 120032Z 15009G14KT 35/16 A2996 RMK A01 T03470162  RH  033%=      5-min Rain = 0
KSE2 120033Z 15009KT 35/16 A2996 RMK A01 T03460162  RH  033%=      5-min Rain = 0
KSE2 120034Z 14010KT 35/16 A2996 RMK A01 T03460163  RH  034%=      5-min Rain = 0
KSE2 120035Z 13011KT 35/16 A2996 RMK A01 T03460163  RH  034%=      5-min Rain = 0
KSE2 120036Z 14009KT 35/16 A2996 RMK A01 T03450163  RH  034%=      5-min Rain = 0
KSE2 120037Z 14010KT 35/16 A2996 RMK A01 T03450163  RH  034%=      5-min Rain = 0
KSE2 120038Z 14008KT 35/16 A2996 RMK A01 T03450163  RH  034%=      5-min Rain = 0
KSE2 120039Z 14009KT 34/16 A2996 RMK A01 T03440163  RH  034%=      5-min Rain = 0
KSE2 120040Z 14009KT 34/16 A2996 RMK A01 T03440163  RH  034%=      5-min Rain = 0
KSE2 120041Z 14010G15KT 34/16 A2996 RMK A01 T03440163  RH  034%=      5-min Rain = 0
KSE2 120042Z 14012KT 34/16 A2996 RMK A01 T03430161  RH  034%=      5-min Rain = 0
KSE2 120043Z 13011KT 34/16 A2996 RMK A01 T03420161  RH  034%=      5-min Rain = 0
KSE2 120044Z 13011G16KT 34/16 A2996 RMK A01 T03420161  RH  034%=      5-min Rain = 0
KSE2 120045Z 12012KT 34/16 A2996 RMK A01 T03420160  RH  034%=      5-min Rain = 0
KSE2 120046Z 13013G18KT 34/16 A2996 RMK A01 T03410160  RH  034%=      5-min Rain = 0
KSE2 120047Z 13009KT 34/16 A2996 RMK A01 T03410159  RH  034%=      5-min Rain = 0
KSE2 120048Z 13012KT 34/16 A2996 RMK A01 T03400160  RH  034%=      5-min Rain = 0
KSE2 120049Z 12010KT 34/16 A2996 RMK A01 T03400160  RH  034%=      5-min Rain = 0
KSE2 120050Z 13014KT 34/16 A2996 RMK A01 T03400160  RH  034%=      5-min Rain = 0
KSE2 120051Z 13011KT 34/16 A2996 RMK A01 T03400160  RH  034%=      5-min Rain = 0
KSE2 120052Z 14010KT 34/16 A2996 RMK A01 T03390160  RH  034%=      5-min Rain = 0
KSE2 120053Z 14010KT 34/16 A2996 RMK A01 T03390160  RH  034%=      5-min Rain = 0
KSE2 120054Z 14013KT 34/16 A2996 RMK A01 T03390160  RH  034%=      5-min Rain = 0
KSE2 120055Z 14011KT 34/16 A2996 RMK A01 T03390160  RH  034%=      5-min Rain = 0
KSE2 120056Z 14009KT 34/16 A2996 RMK A01 T03390160  RH  034%=      5-min Rain = 0
KSE2 120057Z 14012KT 34/16 A2996 RMK A01 T03380160  RH  034%=      5-min Rain = 0
KSE2 120058Z 14011KT 34/16 A2996 RMK A01 T03380160  RH  034%=      5-min Rain = 0
KSE2 120059Z 14011KT 34/16 A2996 RMK A01 T03380159  RH  034%=      5-min Rain = 0
KSE2 120100Z 14009KT 34/16 A2996 RMK A01 T03380159  RH  034%=      5-min Rain = 0
KSE2 120101Z 15009KT 34/16 A2996 RMK A01 T03370158  RH  034%=      5-min Rain = 0
KSE2 120102Z 14009KT 34/16 A2996 RMK A01 T03370158  RH  034%=      5-min Rain = 0
KSE2 120103Z 14010KT 34/16 A2997 RMK A01 T03360158  RH  035%=      5-min Rain = 0
KSE2 120104Z 15010KT 34/16 A2997 RMK A01 T03360158  RH  035%=      5-min Rain = 0
KSE2 120105Z 15011KT 34/16 A2997 RMK A01 T03350158  RH  035%=      5-min Rain = 0
KSE2 120106Z 14010KT 34/16 A2997 RMK A01 T03350158  RH  035%=      5-min Rain = 0
KSE2 120107Z 15010KT 33/16 A2997 RMK A01 T03340159  RH  035%=      5-min Rain = 0
KSE2 120108Z 14011KT 33/16 A2997 RMK A01 T03340159  RH  035%=      5-min Rain = 0
KSE2 120109Z 14010KT 33/16 A2997 RMK A01 T03340159  RH  035%=      5-min Rain = 0
KSE2 120110Z 15012KT 33/16 A2997 RMK A01 T03330160  RH  035%=      5-min Rain = 0
KSE2 120111Z 15008KT 33/16 A2997 RMK A01 T03330161  RH  036%=      5-min Rain = 0
KSE2 120112Z 15010KT 33/16 A2997 RMK A01 T03330161  RH  036%=      5-min Rain = 0
KSE2 120113Z 14010G15KT 33/16 A2997 RMK A01 T03320162  RH  036%=      5-min Rain = 0
KSE2 120114Z 15008KT 33/16 A2997 RMK A01 T03320162  RH  036%=      5-min Rain = 0
KSE2 120115Z 15012KT 33/16 A2997 RMK A01 T03320162  RH  036%=      5-min Rain = 0
KSE2 120116Z 14011KT 33/16 A2997 RMK A01 T03320163  RH  036%=      5-min Rain = 0
KSE2 120117Z 14009KT 33/16 A2997 RMK A01 T03320163  RH  036%=      5-min Rain = 0
KSE2 120118Z 14009KT 33/16 A2997 RMK A01 T03310163  RH  036%=      5-min Rain = 0
KSE2 120119Z 14007KT 33/16 A2997 RMK A01 T03310163  RH  037%=      5-min Rain = 0
KSE2 120120Z 14007KT 33/16 A2997 RMK A01 T03300162  RH  037%=      5-min Rain = 0
KSE2 120121Z 14008KT 33/16 A2997 RMK A01 T03290163  RH  037%=      5-min Rain = 0
KSE2 120122Z 13008KT 33/16 A2997 RMK A01 T03290162  RH  037%=      5-min Rain = 0
KSE2 120123Z 14007KT 33/16 A2997 RMK A01 T03280162  RH  037%=      5-min Rain = 0
KSE2 120124Z 13010KT 33/16 A2997 RMK A01 T03280162  RH  037%=      5-min Rain = 0
KSE2 120125Z 14007KT 33/16 A2997 RMK A01 T03280162  RH  037%=      5-min Rain = 0
KSE2 120126Z 14009KT 33/16 A2997 RMK A01 T03270162  RH  037%=      5-min Rain = 0
KSE2 120127Z 14007KT 33/16 A2997 RMK A01 T03270162  RH  037%=      5-min Rain = 0
KSE2 120128Z 14007KT 33/16 A2997 RMK A01 T03260162  RH  037%=      5-min Rain = 0
KSE2 120129Z 14007KT 33/16 A2997 RMK A01 T03250162  RH  037%=      5-min Rain = 0
KSE2 120130Z 13008KT 33/16 A2997 RMK A01 T03250162  RH  037%=      5-min Rain = 0
KSE2 120131Z 14007KT 33/16 A2997 RMK A01 T03250162  RH  038%=      5-min Rain = 0
KSE2 120132Z 14006KT 32/16 A2997 RMK A01 T03240162  RH  038%=      5-min Rain = 0
KSE2 120133Z 14007KT 32/16 A2997 RMK A01 T03240162  RH  038%=      5-min Rain = 0
KSE2 120134Z 13009KT 32/16 A2997 RMK A01 T03240162  RH  038%=      5-min Rain = 0
KSE2 120135Z 14010KT 32/16 A2997 RMK A01 T03230161  RH  038%=      5-min Rain = 0
KSE2 120136Z 13008KT 32/16 A2997 RMK A01 T03240161  RH  038%=      5-min Rain = 0
KSE2 120137Z 14009KT 32/16 A2997 RMK A01 T03240162  RH  038%=      5-min Rain = 0
KSE2 120138Z 13010KT 32/16 A2997 RMK A01 T03240161  RH  038%=      5-min Rain = 0
KSE2 120139Z 13010KT 32/16 A2997 RMK A01 T03240161  RH  038%=      5-min Rain = 0
KSE2 120140Z 13009KT 32/16 A2997 RMK A01 T03240161  RH  038%=      5-min Rain = 0
KSE2 120141Z 14009KT 32/16 A2997 RMK A01 T03240161  RH  038%=      5-min Rain = 0
KSE2 120142Z 13009KT 32/16 A2997 RMK A01 T03240162  RH  038%=      5-min Rain = 0
KSE2 120143Z 13008KT 32/16 A2997 RMK A01 T03230162  RH  038%=      5-min Rain = 0
KSE2 120144Z 14008KT 32/16 A2997 RMK A01 T03230162  RH  038%=      5-min Rain = 0
KSE2 120145Z 14008KT 32/16 A2997 RMK A01 T03220162  RH  038%=      5-min Rain = 0
KSE2 120146Z 13008KT 32/16 A2997 RMK A01 T03220163  RH  038%=      5-min Rain = 0
KSE2 120147Z 14007KT 32/16 A2997 RMK A01 T03220162  RH  038%=      5-min Rain = 0
KSE2 120148Z 14009KT 32/16 A2997 RMK A01 T03210163  RH  039%=      5-min Rain = 0
KSE2 120149Z 13010KT 32/16 A2997 RMK A01 T03210163  RH  039%=      5-min Rain = 0
KSE2 120150Z 14009KT 32/16 A2997 RMK A01 T03210163  RH  039%=      5-min Rain = 0
KSE2 120151Z 14008KT 32/16 A2997 RMK A01 T03210162  RH  039%=      5-min Rain = 0
KSE2 120152Z 13009KT 32/16 A2997 RMK A01 T03200163  RH  039%=      5-min Rain = 0
KSE2 120153Z 13007KT 32/16 A2997 RMK A01 T03210163  RH  039%=      5-min Rain = 0
KSE2 120154Z 13008KT 32/16 A2998 RMK A01 T03200163  RH  039%=      5-min Rain = 0
KSE2 120155Z 14009KT 32/16 A2998 RMK A01 T03200163  RH  039%=      5-min Rain = 0
KSE2 120156Z 14008KT 32/16 A2998 RMK A01 T03190163  RH  039%=      5-min Rain = 0
KSE2 120157Z 14007KT 32/16 A2998 RMK A01 T03190163  RH  039%=      5-min Rain = 0
KSE2 120158Z 13008KT 32/16 A2998 RMK A01 T03190163  RH  039%=      5-min Rain = 0
KSE2 120159Z 14007KT 32/16 A2998 RMK A01 T03190163  RH  039%=      5-min Rain = 0
KSE2 120200Z 14007KT 32/16 A2998 RMK A01 T03180162  RH  039%=      5-min Rain = 0
KSE2 120201Z 13006KT 32/16 A2998 RMK A01 T03170163  RH  039%=      5-min Rain = 0
KSE2 120202Z 14007KT 32/16 A2998 RMK A01 T03170163  RH  039%=      5-min Rain = 0
KSE2 120203Z 14007KT 32/16 A2998 RMK A01 T03170163  RH  040%=      5-min Rain = 0
KSE2 120204Z 14007KT 32/16 A2998 RMK A01 T03170163  RH  040%=      5-min Rain = 0
KSE2 120205Z 14007KT 32/16 A2998 RMK A01 T03170163  RH  040%=      5-min Rain = 0
KSE2 120206Z 15007KT 32/16 A2998 RMK A01 T03160163  RH  040%=      5-min Rain = 0
KSE2 120207Z 14006KT 32/16 A2998 RMK A01 T03160162  RH  040%=      5-min Rain = 0
KSE2 120208Z 13006KT 32/16 A2998 RMK A01 T03150162  RH  040%=      5-min Rain = 0
KSE2 120209Z 14007KT 32/16 A2998 RMK A01 T03150162  RH  040%=      5-min Rain = 0
KSE2 120210Z 13007KT 32/16 A2998 RMK A01 T03150162  RH  040%=      5-min Rain = 0
KSE2 120211Z 14007KT 31/16 A2998 RMK A01 T03140162  RH  040%=      5-min Rain = 0
KSE2 120212Z 14006KT 31/16 A2998 RMK A01 T03140162  RH  040%=      5-min Rain = 0
KSE2 120213Z 14005KT 31/16 A2998 RMK A01 T03140162  RH  040%=      5-min Rain = 0
KSE2 120214Z 14006KT 31/16 A2999 RMK A01 T03130162  RH  040%=      5-min Rain = 0
KSE2 120215Z 14007KT 31/16 A2999 RMK A01 T03130162  RH  040%=      5-min Rain = 0
KSE2 120216Z 14005KT 31/16 A2999 RMK A01 T03130162  RH  040%=      5-min Rain = 0
KSE2 120217Z 14006KT 31/16 A2999 RMK A01 T03120162  RH  040%=      5-min Rain = 0
KSE2 120218Z 14006KT 31/16 A2999 RMK A01 T03120162  RH  040%=      5-min Rain = 0
KSE2 120219Z 14006KT 31/16 A2999 RMK A01 T03120162  RH  041%=      5-min Rain = 0
KSE2 120220Z 14006KT 31/16 A2999 RMK A01 T03110162  RH  041%=      5-min Rain = 0
KSE2 120221Z 14005KT 31/16 A2999 RMK A01 T03110162  RH  041%=      5-min Rain = 0
KSE2 120222Z 14006KT 31/16 A2999 RMK A01 T03100162  RH  041%=      5-min Rain = 0
KSE2 120223Z 14006KT 31/16 A2999 RMK A01 T03100162  RH  041%=      5-min Rain = 0
KSE2 120224Z 14006KT 31/16 A2999 RMK A01 T03100162  RH  041%=      5-min Rain = 0
KSE2 120225Z 13006KT 31/16 A2999 RMK A01 T03100162  RH  041%=      5-min Rain = 0
KSE2 120226Z 14005KT 31/16 A2999 RMK A01 T03090162  RH  041%=      5-min Rain = 0
KSE2 120227Z 14005KT 31/16 A2999 RMK A01 T03080161  RH  041%=      5-min Rain = 0
KSE2 120228Z 13005KT 31/16 A2999 RMK A01 T03080162  RH  041%=      5-min Rain = 0
KSE2 120229Z 14005KT 31/16 A2999 RMK A01 T03070161  RH  041%=      5-min Rain = 0
KSE2 120230Z 13005KT 31/16 A2999 RMK A01 T03070162  RH  042%=      5-min Rain = 0
KSE2 120231Z 14006KT 31/16 A2999 RMK A01 T03070162  RH  042%=      5-min Rain = 0
KSE2 120232Z 13006KT 31/16 A2999 RMK A01 T03070162  RH  042%=      5-min Rain = 0
KSE2 120233Z 13006KT 31/16 A2999 RMK A01 T03070162  RH  042%=      5-min Rain = 0
KSE2 120234Z 12006KT 31/16 A2999 RMK A01 T03060162  RH  042%=      5-min Rain = 0
KSE2 120235Z 12006KT 31/16 A2999 RMK A01 T03050161  RH  042%=      5-min Rain = 0
KSE2 120236Z 12006KT 30/16 A2999 RMK A01 T03040161  RH  042%=      5-min Rain = 0
KSE2 120237Z 12006KT 30/16 A2999 RMK A01 T03030161  RH  042%=      5-min Rain = 0
KSE2 120238Z 13006KT 30/16 A2999 RMK A01 T03030162  RH  042%=      5-min Rain = 0
KSE2 120239Z 13006KT 30/16 A2999 RMK A01 T03040162  RH  042%=      5-min Rain = 0
KSE2 120240Z 13006KT 30/16 A2999 RMK A01 T03040162  RH  042%=      5-min Rain = 0
KSE2 120241Z 12006KT 30/16 A2999 RMK A01 T03030161  RH  042%=      5-min Rain = 0
KSE2 120242Z 12006KT 30/16 A2999 RMK A01 T03030162  RH  042%=      5-min Rain = 0
KSE2 120243Z 12006KT 30/16 A2999 RMK A01 T03030161  RH  042%=      5-min Rain = 0
KSE2 120244Z 12005KT 30/16 A2999 RMK A01 T03030161  RH  043%=      5-min Rain = 0
KSE2 120245Z 12005KT 30/16 A2999 RMK A01 T03020161  RH  043%=      5-min Rain = 0
KSE2 120246Z 12006KT 30/16 A2999 RMK A01 T03020161  RH  043%=      5-min Rain = 0
KSE2 120247Z 12006KT 30/16 A2999 RMK A01 T03010161  RH  043%=      5-min Rain = 0
KSE2 120248Z 12005KT 30/16 A2999 RMK A01 T03010161  RH  043%=      5-min Rain = 0
KSE2 120249Z 13005KT 30/16 A2999 RMK A01 T03000161  RH  043%=      5-min Rain = 0
KSE2 120250Z 12005KT 30/16 A2999 RMK A01 T03000161  RH  043%=      5-min Rain = 0
KSE2 120251Z 13006KT 30/16 A2999 RMK A01 T03000161  RH  043%=      5-min Rain = 0
KSE2 120252Z 13005KT 30/16 A2999 RMK A01 T02990161  RH  043%=      5-min Rain = 0
KSE2 120253Z 12005KT 30/16 A2999 RMK A01 T02990161  RH  043%=      5-min Rain = 0
KSE2 120254Z 13005KT 30/16 A2999 RMK A01 T02990161  RH  043%=      5-min Rain = 0
KSE2 120255Z 12005KT 30/16 A2999 RMK A01 T02980161  RH  044%=      5-min Rain = 0
KSE2 120256Z 13005KT 30/16 A2999 RMK A01 T02980161  RH  044%=      5-min Rain = 0
KSE2 120257Z 13005KT 30/16 A2999 RMK A01 T02980162  RH  044%=      5-min Rain = 0
KSE2 120258Z 13006KT 30/16 A2999 RMK A01 T02980163  RH  044%=      5-min Rain = 0
KSE2 120259Z 13006KT 30/16 A2999 RMK A01 T02970163  RH  044%=      5-min Rain = 0
KSE2 120300Z 12006KT 30/16 A2999 RMK A01 T02970163  RH  044%=      5-min Rain = 0
KSE2 120301Z 12005KT 30/16 A2999 RMK A01 T02970163  RH  044%=      5-min Rain = 0
KSE2 120302Z 12006KT 30/16 A2999 RMK A01 T02960163  RH  044%=      5-min Rain = 0
KSE2 120303Z 13006KT 30/16 A2999 RMK A01 T02950163  RH  045%=      5-min Rain = 0
KSE2 120304Z 12006KT 30/16 A2999 RMK A01 T02950163  RH  045%=      5-min Rain = 0
KSE2 120305Z 12005KT 29/16 A2999 RMK A01 T02940163  RH  045%=      5-min Rain = 0
KSE2 120306Z 13006KT 29/16 A2999 RMK A01 T02940164  RH  045%=      5-min Rain = 0
KSE2 120307Z 13006KT 29/16 A2999 RMK A01 T02940164  RH  045%=      5-min Rain = 0
KSE2 120308Z 13006KT 29/16 A2999 RMK A01 T02940164  RH  046%=      5-min Rain = 0
KSE2 120309Z 13005KT 29/16 A2999 RMK A01 T02940164  RH  046%=      5-min Rain = 0
KSE2 120310Z 13005KT 29/16 A2999 RMK A01 T02930164  RH  046%=      5-min Rain = 0
KSE2 120311Z 13005KT 29/17 A2999 RMK A01 T02930165  RH  046%=      5-min Rain = 0
KSE2 120312Z 13006KT 29/17 A2999 RMK A01 T02930165  RH  046%=      5-min Rain = 0
KSE2 120313Z 13005KT 29/17 A2999 RMK A01 T02920165  RH  046%=      5-min Rain = 0
KSE2 120314Z 13006KT 29/16 A2999 RMK A01 T02910164  RH  046%=      5-min Rain = 0
KSE2 120315Z 13006KT 29/17 A2999 RMK A01 T02910165  RH  047%=      5-min Rain = 0
KSE2 120316Z 12006KT 29/17 A2999 RMK A01 T02910165  RH  047%=      5-min Rain = 0
KSE2 120317Z 13005KT 29/17 A2999 RMK A01 T02900166  RH  047%=      5-min Rain = 0
KSE2 120318Z 12005KT 29/17 A2999 RMK A01 T02900166  RH  047%=      5-min Rain = 0
KSE2 120319Z 12006KT 29/17 A2999 RMK A01 T02900166  RH  047%=      5-min Rain = 0
KSE2 120320Z 12005KT 29/17 A2999 RMK A01 T02900167  RH  047%=      5-min Rain = 0
KSE2 120321Z 12006KT 29/17 A2999 RMK A01 T02900167  RH  047%=      5-min Rain = 0
KSE2 120322Z 12005KT 29/17 A2999 RMK A01 T02890167  RH  048%=      5-min Rain = 0
KSE2 120323Z 12006KT 29/17 A2999 RMK A01 T02890167  RH  048%=      5-min Rain = 0
KSE2 120324Z 12006KT 29/17 A2999 RMK A01 T02890168  RH  048%=      5-min Rain = 0
KSE2 120325Z 12006KT 29/17 A2999 RMK A01 T02890168  RH  048%=      5-min Rain = 0
KSE2 120326Z 12006KT 29/17 A2999 RMK A01 T02890168  RH  048%=      5-min Rain = 0
KSE2 120327Z 12006KT 29/17 A2999 RMK A01 T02890168  RH  048%=      5-min Rain = 0
KSE2 120328Z 12006KT 29/17 A2999 RMK A01 T02890168  RH  048%=      5-min Rain = 0
KSE2 120329Z 12006KT 29/17 A2999 RMK A01 T02880169  RH  048%=      5-min Rain = 0
KSE2 120330Z 12006KT 29/17 A2999 RMK A01 T02880169  RH  048%=      5-min Rain = 0
KSE2 120331Z 12006KT 29/17 A2999 RMK A01 T02880169  RH  049%=      5-min Rain = 0
KSE2 120332Z 12007KT 29/17 A30 RMK A01 T02880169  RH  049%=      5-min Rain = 0
KSE2 120333Z 13006KT 29/17 A30 RMK A01 T02880169  RH  049%=      5-min Rain = 0
KSE2 120334Z 12006KT 29/17 A30 RMK A01 T02880169  RH  049%=      5-min Rain = 0
KSE2 120335Z 13005KT 29/17 A30 RMK A01 T02880170  RH  049%=      5-min Rain = 0
KSE2 120336Z 13005KT 29/17 A30 RMK A01 T02880170  RH  049%=      5-min Rain = 0
KSE2 120337Z 13006KT 29/17 A30 RMK A01 T02880170  RH  049%=      5-min Rain = 0
KSE2 120338Z 13005KT 29/17 A30 RMK A01 T02870170  RH  049%=      5-min Rain = 0
KSE2 120339Z 13005KT 29/17 A30 RMK A01 T02870170  RH  049%=      5-min Rain = 0
KSE2 120340Z 13005KT 29/17 A30 RMK A01 T02870170  RH  049%=      5-min Rain = 0
KSE2 120341Z 13005KT 29/17 A30 RMK A01 T02860170  RH  049%=      5-min Rain = 0
KSE2 120342Z 13005KT 29/17 A30 RMK A01 T02860170  RH  049%=      5-min Rain = 0
KSE2 120343Z 13005KT 29/17 A30 RMK A01 T02860171  RH  050%=      5-min Rain = 0
KSE2 120344Z 13006KT 29/17 A30 RMK A01 T02860171  RH  050%=      5-min Rain = 0
KSE2 120345Z 13006KT 29/17 A30 RMK A01 T02870171  RH  050%=      5-min Rain = 0
KSE2 120346Z 14005KT 29/17 A30 RMK A01 T02870171  RH  049%=      5-min Rain = 0
KSE2 120347Z 13005KT 29/17 A30 RMK A01 T02870171  RH  049%=      5-min Rain = 0
KSE2 120348Z 13005KT 29/17 A30 RMK A01 T02860170  RH  049%=      5-min Rain = 0
KSE2 120349Z 13005KT 29/17 A30 RMK A01 T02860171  RH  050%=      5-min Rain = 0
KSE2 120350Z 14005KT 29/17 A30 RMK A01 T02850170  RH  050%=      5-min Rain = 0
KSE2 120351Z 13005KT 29/17 A30 RMK A01 T02850170  RH  050%=      5-min Rain = 0
KSE2 120352Z 14005KT 29/17 A30 RMK A01 T02850171  RH  050%=      5-min Rain = 0
KSE2 120353Z 14005KT 28/17 A30 RMK A01 T02840170  RH  050%=      5-min Rain = 0
KSE2 120354Z 14006KT 28/17 A30 RMK A01 T02840170  RH  050%=      5-min Rain = 0
KSE2 120355Z 13005KT 28/17 A30 RMK A01 T02840171  RH  050%=      5-min Rain = 0
KSE2 120356Z 14006KT 28/17 A30 RMK A01 T02830171  RH  050%=      5-min Rain = 0
KSE2 120357Z 14006KT 28/17 A30 RMK A01 T02830171  RH  051%=      5-min Rain = 0
KSE2 120358Z 14006KT 28/17 A30 RMK A01 T02830171  RH  051%=      5-min Rain = 0
KSE2 120359Z 14005KT 28/17 A30 RMK A01 T02830171  RH  051%=      5-min Rain = 0
KSE2 120400Z 14007KT 28/17 A30 RMK A01 T02820171  RH  051%=      5-min Rain = 0
KSE2 120401Z 14004KT 28/17 A30 RMK A01 T02820171  RH  051%=      5-min Rain = 0
KSE2 120402Z 14007KT 28/17 A30 RMK A01 T02820172  RH  051%=      5-min Rain = 0
KSE2 120403Z 14005KT 28/17 A30 RMK A01 T02820172  RH  051%=      5-min Rain = 0
KSE2 120404Z 14005KT 28/17 A30 RMK A01 T02830172  RH  051%=      5-min Rain = 0
KSE2 120405Z 14005KT 28/17 A30 RMK A01 T02820172  RH  051%=      5-min Rain = 0
KSE2 120406Z 14005KT 28/17 A3001 RMK A01 T02820172  RH  051%=      5-min Rain = 0
KSE2 120407Z 14005KT 28/17 A3001 RMK A01 T02810172  RH  051%=      5-min Rain = 0
KSE2 120408Z 14005KT 28/17 A3001 RMK A01 T02820172  RH  052%=      5-min Rain = 0
KSE2 120409Z 14005KT 28/17 A3001 RMK A01 T02810172  RH  052%=      5-min Rain = 0
KSE2 120410Z 14005KT 28/17 A3001 RMK A01 T02810172  RH  052%=      5-min Rain = 0
KSE2 120411Z 15005KT 28/17 A3001 RMK A01 T02800172  RH  052%=      5-min Rain = 0
KSE2 120412Z 15005KT 28/17 A3001 RMK A01 T02800172  RH  052%=      5-min Rain = 0
KSE2 120413Z 15005KT 28/17 A3001 RMK A01 T02800173  RH  052%=      5-min Rain = 0
KSE2 120414Z 15005KT 28/17 A3001 RMK A01 T02800173  RH  052%=      5-min Rain = 0
KSE2 120415Z 14005KT 28/17 A3001 RMK A01 T02800173  RH  052%=      5-min Rain = 0
KSE2 120416Z 15005KT 28/17 A3001 RMK A01 T02800173  RH  052%=      5-min Rain = 0
KSE2 120417Z 15005KT 28/17 A3001 RMK A01 T02800173  RH  052%=      5-min Rain = 0
KSE2 120418Z 15005KT 28/17 A3001 RMK A01 T02800173  RH  052%=      5-min Rain = 0
KSE2 120419Z 15004KT 28/17 A3001 RMK A01 T02800174  RH  052%=      5-min Rain = 0
KSE2 120420Z 14004KT 28/17 A3001 RMK A01 T02800174  RH  052%=      5-min Rain = 0
KSE2 120421Z 14005KT 28/17 A3001 RMK A01 T02810174  RH  052%=      5-min Rain = 0
KSE2 120422Z 15005KT 28/17 A3001 RMK A01 T02810174  RH  052%=      5-min Rain = 0
KSE2 120423Z 14005KT 28/17 A3001 RMK A01 T02800174  RH  052%=      5-min Rain = 0
KSE2 120424Z 14004KT 28/17 A3001 RMK A01 T02800174  RH  053%=      5-min Rain = 0
KSE2 120425Z 14005KT 28/17 A3001 RMK A01 T02800174  RH  053%=      5-min Rain = 0
KSE2 120426Z 14005KT 28/18 A3001 RMK A01 T02800175  RH  053%=      5-min Rain = 0
KSE2 120427Z 14005KT 28/17 A3001 RMK A01 T02800174  RH  053%=      5-min Rain = 0
KSE2 120428Z 14005KT 28/17 A3001 RMK A01 T02800174  RH  053%=      5-min Rain = 0
KSE2 120429Z 14005KT 28/18 A3001 RMK A01 T02800175  RH  053%=      5-min Rain = 0
KSE2 120430Z 14005KT 28/18 A3001 RMK A01 T02800175  RH  053%=      5-min Rain = 0
KSE2 120431Z 14005KT 28/18 A3001 RMK A01 T02800175  RH  053%=      5-min Rain = 0
KSE2 120432Z 14005KT 28/18 A3001 RMK A01 T02800175  RH  053%=      5-min Rain = 0
KSE2 120433Z 14005KT 28/18 A3001 RMK A01 T02800175  RH  053%=      5-min Rain = 0
KSE2 120434Z 14004KT 28/18 A3001 RMK A01 T02800175  RH  053%=      5-min Rain = 0
KSE2 120435Z 14005KT 28/18 A3001 RMK A01 T02790175  RH  053%=      5-min Rain = 0
KSE2 120436Z 14005KT 28/18 A3001 RMK A01 T02790175  RH  053%=      5-min Rain = 0
KSE2 120437Z 14005KT 28/18 A3001 RMK A01 T02780175  RH  053%=      5-min Rain = 0
KSE2 120438Z 14004KT 28/18 A3001 RMK A01 T02780175  RH  053%=      5-min Rain = 0
KSE2 120439Z 14004KT 28/18 A3001 RMK A01 T02780175  RH  053%=      5-min Rain = 0
KSE2 120440Z 15005KT 28/18 A3001 RMK A01 T02790175  RH  053%=      5-min Rain = 0
KSE2 120441Z 14004KT 28/18 A3001 RMK A01 T02780175  RH  053%=      5-min Rain = 0
KSE2 120442Z 15005KT 28/18 A3001 RMK A01 T02770175  RH  054%=      5-min Rain = 0
KSE2 120443Z 15005KT 28/18 A3001 RMK A01 T02780175  RH  054%=      5-min Rain = 0
KSE2 120444Z 15005KT 28/18 A3001 RMK A01 T02780175  RH  054%=      5-min Rain = 0
KSE2 120445Z 15005KT 28/18 A3001 RMK A01 T02780175  RH  054%=      5-min Rain = 0
KSE2 120446Z 15005KT 28/18 A3001 RMK A01 T02780175  RH  054%=      5-min Rain = 0
KSE2 120447Z 15005KT 28/18 A3001 RMK A01 T02780175  RH  054%=      5-min Rain = 0
KSE2 120448Z 15006KT 28/18 A3001 RMK A01 T02770175  RH  054%=      5-min Rain = 0
KSE2 120449Z 15005KT 28/18 A3001 RMK A01 T02770175  RH  054%=      5-min Rain = 0
KSE2 120450Z 15005KT 28/18 A3001 RMK A01 T02770175  RH  054%=      5-min Rain = 0
KSE2 120451Z 15006KT 28/18 A3001 RMK A01 T02770175  RH  054%=      5-min Rain = 0
KSE2 120452Z 14005KT 28/18 A3001 RMK A01 T02760175  RH  054%=      5-min Rain = 0
KSE2 120453Z 15006KT 28/18 A3001 RMK A01 T02760175  RH  054%=      5-min Rain = 0
KSE2 120454Z 14005KT 28/18 A3001 RMK A01 T02760175  RH  054%=      5-min Rain = 0
KSE2 120455Z 15005KT 28/18 A3001 RMK A01 T02750175  RH  054%=      5-min Rain = 0
KSE2 120456Z 14005KT 28/18 A3001 RMK A01 T02750175  RH  054%=      5-min Rain = 0
KSE2 120457Z 14005KT 28/18 A3001 RMK A01 T02750175  RH  054%=      5-min Rain = 0
KSE2 120458Z 14006KT 28/18 A3002 RMK A01 T02750175  RH  055%=      5-min Rain = 0
KSE2 120459Z 14005KT 27/18 A3002 RMK A01 T02740175  RH  055%=      5-min Rain = 0

Page generated in 0.1202 seconds.